NOAA Web Site Link Tides and Currents Home Page Transparent placeholder image

PORTS® Data Listing: 8726694 TPA Cruise Terminal 2, FL

CO-OPS RAW PORTS DATA

************************      PRELIMINARY DATA      ************************** 

     THIS RAW DATA HAS NOT BEEN SUBJECT TO THE NATIONAL OCEAN SERVICE'S        
     QUALITY CONTROL OR QUALITY ASSURANCE PROCEDURES AND DOES NOT MEET         
     THE CRITERIA AND STANDARDS OF OFFICIAL NATIONAL OCEAN SERVICE             
     DATA.  IT IS RELEASED FOR LIMITED PUBLIC USE AS PRELIMINARY DATA TO       
     BE USED ONLY WITH APPROPRIATE CAUTION.                                    

************************      PRELIMINARY DATA      ************************** 


       CD   -   Calendar date
       T    -   Time
       TZ   -   Timezone
       PW   -   Predicted water level (feet above MLLW)
       OW   -   Observed water level (feet above MLLW)
       WS   -   Wind speed (knots)
       WD   -   Wind direction (degrees true)
       WG   -   Wind gust (knots)
       AT   -   Air temperature (degrees farenheit)
       WT   -   Water temperature (degrees farenheit)
       AP   -   Air pressure (millibars)
       SA   -   Salinty (PSU - Practical Salinity Units)
       SG   -   Specific gravity
       RH   -   Relative humidity
       AG   -   Air gap (feet)
       VI   -   Visibility (nautical miles)

       ** NOTE **
       A variable that has its data fields filled with "9"s, indicates that
       data was not collected for that sample period.
       **********


STATION NAME: TPA Cruise Terminal 2 MET (8726694)
****************************************************************************************************
    CD       T    TZ    PW     OW    WS   WD   WG    AT    WT    AP    SA    SG     RH    AG   VI
****************************************************************************************************
2019/05/16 05:36 EDT  -99.99 -99.99    5   46    7 -99.9 -99.9 -999.9 -9.9 -9.999 -99.9 -99.99 -9.99
2019/05/16 05:42 EDT  -99.99 -99.99    5   37    7 -99.9 -99.9 -999.9 -9.9 -9.999 -99.9 -99.99 -9.99
2019/05/16 05:48 EDT  -99.99 -99.99    5   42    6 -99.9 -99.9 -999.9 -9.9 -9.999 -99.9 -99.99 -9.99
2019/05/16 05:54 EDT  -99.99 -99.99    4   45    6 -99.9 -99.9 -999.9 -9.9 -9.999 -99.9 -99.99 -9.99
2019/05/16 06:00 EDT  -99.99 -99.99    4   12    6 -99.9 -99.9 -999.9 -9.9 -9.999 -99.9 -99.99 -9.99
2019/05/16 06:06 EDT  -99.99 -99.99    3   29    5 -99.9 -99.9 -999.9 -9.9 -9.999 -99.9 -99.99 -9.99
2019/05/16 06:12 EDT  -99.99 -99.99    4   13    5 -99.9 -99.9 -999.9 -9.9 -9.999 -99.9 -99.99 -9.99
2019/05/16 06:18 EDT  -99.99 -99.99 -999 -999 -999 -99.9 -99.9 -999.9 -9.9 -9.999 -99.9 -99.99 -9.99
2019/05/16 06:24 EDT  -99.99 -99.99    4   42    5 -99.9 -99.9 -999.9 -9.9 -9.999 -99.9 -99.99 -9.99
2019/05/16 06:30 EDT  -99.99 -99.99 -999 -999 -999 -99.9 -99.9 -999.9 -9.9 -9.999 -99.9 -99.99 -9.99
2019/05/16 06:36 EDT  -99.99 -99.99    3  359    5 -99.9 -99.9 -999.9 -9.9 -9.999 -99.9 -99.99 -9.99
2019/05/16 06:42 EDT  -99.99 -99.99    4  353    5 -99.9 -99.9 -999.9 -9.9 -9.999 -99.9 -99.99 -9.99
2019/05/16 06:48 EDT  -99.99 -99.99    3    6    5 -99.9 -99.9 -999.9 -9.9 -9.999 -99.9 -99.99 -9.99
2019/05/16 06:54 EDT  -99.99 -99.99    3    3    5 -99.9 -99.9 -999.9 -9.9 -9.999 -99.9 -99.99 -9.99
2019/05/16 07:00 EDT  -99.99 -99.99    3   27    5 -99.9 -99.9 -999.9 -9.9 -9.999 -99.9 -99.99 -9.99
2019/05/16 07:06 EDT  -99.99 -99.99    3   28    4 -99.9 -99.9 -999.9 -9.9 -9.999 -99.9 -99.99 -9.99
2019/05/16 07:12 EDT  -99.99 -99.99    2   46    4 -99.9 -99.9 -999.9 -9.9 -9.999 -99.9 -99.99 -9.99
2019/05/16 07:18 EDT  -99.99 -99.99    3   42    4 -99.9 -99.9 -999.9 -9.9 -9.999 -99.9 -99.99 -9.99
2019/05/16 07:24 EDT  -99.99 -99.99    3   59    4 -99.9 -99.9 -999.9 -9.9 -9.999 -99.9 -99.99 -9.99
2019/05/16 07:30 EDT  -99.99 -99.99    4   51    6 -99.9 -99.9 -999.9 -9.9 -9.999 -99.9 -99.99 -9.99
2019/05/16 07:36 EDT  -99.99 -99.99    4   36    6 -99.9 -99.9 -999.9 -9.9 -9.999 -99.9 -99.99 -9.99
2019/05/16 07:42 EDT  -99.99 -99.99    4   17    6 -99.9 -99.9 -999.9 -9.9 -9.999 -99.9 -99.99 -9.99
2019/05/16 07:48 EDT  -99.99 -99.99    3   29    5 -99.9 -99.9 -999.9 -9.9 -9.999 -99.9 -99.99 -9.99
2019/05/16 07:54 EDT  -99.99 -99.99    3   32    5 -99.9 -99.9 -999.9 -9.9 -9.999 -99.9 -99.99 -9.99
2019/05/16 08:00 EDT  -99.99 -99.99    4   38    7 -99.9 -99.9 -999.9 -9.9 -9.999 -99.9 -99.99 -9.99
2019/05/16 08:06 EDT  -99.99 -99.99    5   42    6 -99.9 -99.9 -999.9 -9.9 -9.999 -99.9 -99.99 -9.99
2019/05/16 08:12 EDT  -99.99 -99.99    5   63    7 -99.9 -99.9 -999.9 -9.9 -9.999 -99.9 -99.99 -9.99
2019/05/16 08:18 EDT  -99.99 -99.99    4   50    6 -99.9 -99.9 -999.9 -9.9 -9.999 -99.9 -99.99 -9.99
2019/05/16 08:24 EDT  -99.99 -99.99    7   53   10 -99.9 -99.9 -999.9 -9.9 -9.999 -99.9 -99.99 -9.99
2019/05/16 08:30 EDT  -99.99 -99.99    7   51    9 -99.9 -99.9 -999.9 -9.9 -9.999 -99.9 -99.99 -9.99
2019/05/16 08:36 EDT  -99.99 -99.99    5   44    7 -99.9 -99.9 -999.9 -9.9 -9.999 -99.9 -99.99 -9.99
2019/05/16 08:42 EDT  -99.99 -99.99    7   55    9 -99.9 -99.9 -999.9 -9.9 -9.999 -99.9 -99.99 -9.99
2019/05/16 08:48 EDT  -99.99 -99.99    6   54    9 -99.9 -99.9 -999.9 -9.9 -9.999 -99.9 -99.99 -9.99
2019/05/16 08:54 EDT  -99.99 -99.99    5   65    7 -99.9 -99.9 -999.9 -9.9 -9.999 -99.9 -99.99 -9.99
2019/05/16 09:00 EDT  -99.99 -99.99    6   72    9 -99.9 -99.9 -999.9 -9.9 -9.999 -99.9 -99.99 -9.99
2019/05/16 09:06 EDT  -99.99 -99.99    6   95    9 -99.9 -99.9 -999.9 -9.9 -9.999 -99.9 -99.99 -9.99
2019/05/16 09:12 EDT  -99.99 -99.99    7   97   10 -99.9 -99.9 -999.9 -9.9 -9.999 -99.9 -99.99 -9.99
2019/05/16 09:18 EDT  -99.99 -99.99    8   86   11 -99.9 -99.9 -999.9 -9.9 -9.999 -99.9 -99.99 -9.99
2019/05/16 09:24 EDT  -99.99 -99.99    7   81   11 -99.9 -99.9 -999.9 -9.9 -9.999 -99.9 -99.99 -9.99
2019/05/16 09:30 EDT  -99.99 -99.99    8   74   11 -99.9 -99.9 -999.9 -9.9 -9.999 -99.9 -99.99 -9.99
2019/05/16 09:36 EDT  -99.99 -99.99    6   60   10 -99.9 -99.9 -999.9 -9.9 -9.999 -99.9 -99.99 -9.99
2019/05/16 09:42 EDT  -99.99 -99.99    7   53    9 -99.9 -99.9 -999.9 -9.9 -9.999 -99.9 -99.99 -9.99
2019/05/16 09:48 EDT  -99.99 -99.99    7   69   11 -99.9 -99.9 -999.9 -9.9 -9.999 -99.9 -99.99 -9.99
2019/05/16 09:54 EDT  -99.99 -99.99    9   84   12 -99.9 -99.9 -999.9 -9.9 -9.999 -99.9 -99.99 -9.99
2019/05/16 10:00 EDT  -99.99 -99.99    7   97    9 -99.9 -99.9 -999.9 -9.9 -9.999 -99.9 -99.99 -9.99
2019/05/16 10:06 EDT  -99.99 -99.99    7   86    9 -99.9 -99.9 -999.9 -9.9 -9.999 -99.9 -99.99 -9.99
2019/05/16 10:12 EDT  -99.99 -99.99    7  102    9 -99.9 -99.9 -999.9 -9.9 -9.999 -99.9 -99.99 -9.99
2019/05/16 10:18 EDT  -99.99 -99.99    5   66    8 -99.9 -99.9 -999.9 -9.9 -9.999 -99.9 -99.99 -9.99
2019/05/16 10:24 EDT  -99.99 -99.99    8   82   10 -99.9 -99.9 -999.9 -9.9 -9.999 -99.9 -99.99 -9.99
2019/05/16 10:30 EDT  -99.99 -99.99    6   81    9 -99.9 -99.9 -999.9 -9.9 -9.999 -99.9 -99.99 -9.99
2019/05/16 10:36 EDT  -99.99 -99.99    5   68    7 -99.9 -99.9 -999.9 -9.9 -9.999 -99.9 -99.99 -9.99
2019/05/16 10:42 EDT  -99.99 -99.99    7   88    9 -99.9 -99.9 -999.9 -9.9 -9.999 -99.9 -99.99 -9.99
2019/05/16 10:48 EDT  -99.99 -99.99    7   72   10 -99.9 -99.9 -999.9 -9.9 -9.999 -99.9 -99.99 -9.99
2019/05/16 10:54 EDT  -99.99 -99.99    7  100   11 -99.9 -99.9 -999.9 -9.9 -9.999 -99.9 -99.99 -9.99
2019/05/16 11:00 EDT  -99.99 -99.99    5   90    9 -99.9 -99.9 -999.9 -9.9 -9.999 -99.9 -99.99 -9.99
2019/05/16 11:06 EDT  -99.99 -99.99    5   99    8 -99.9 -99.9 -999.9 -9.9 -9.999 -99.9 -99.99 -9.99
2019/05/16 11:12 EDT  -99.99 -99.99    6   80    8 -99.9 -99.9 -999.9 -9.9 -9.999 -99.9 -99.99 -9.99
2019/05/16 11:18 EDT  -99.99 -99.99    9   35   12 -99.9 -99.9 -999.9 -9.9 -9.999 -99.9 -99.99 -9.99
2019/05/16 11:24 EDT  -99.99 -99.99    6   47   10 -99.9 -99.9 -999.9 -9.9 -9.999 -99.9 -99.99 -9.99
2019/05/16 11:30 EDT  -99.99 -99.99    6   76    9 -99.9 -99.9 -999.9 -9.9 -9.999 -99.9 -99.99 -9.99
2019/05/16 11:36 EDT  -99.99 -99.99    7   64   12 -99.9 -99.9 -999.9 -9.9 -9.999 -99.9 -99.99 -9.99
2019/05/16 11:42 EDT  -99.99 -99.99    7   75   11 -99.9 -99.9 -999.9 -9.9 -9.999 -99.9 -99.99 -9.99
2019/05/16 11:48 EDT  -99.99 -99.99    7   67   10 -99.9 -99.9 -999.9 -9.9 -9.999 -99.9 -99.99 -9.99
2019/05/16 11:54 EDT  -99.99 -99.99    8   91   11 -99.9 -99.9 -999.9 -9.9 -9.999 -99.9 -99.99 -9.99
2019/05/16 12:00 EDT  -99.99 -99.99    6   75   10 -99.9 -99.9 -999.9 -9.9 -9.999 -99.9 -99.99 -9.99
2019/05/16 12:06 EDT  -99.99 -99.99    7   81    9 -99.9 -99.9 -999.9 -9.9 -9.999 -99.9 -99.99 -9.99
2019/05/16 12:12 EDT  -99.99 -99.99    7   91   11 -99.9 -99.9 -999.9 -9.9 -9.999 -99.9 -99.99 -9.99
2019/05/16 12:18 EDT  -99.99 -99.99    6   75    9 -99.9 -99.9 -999.9 -9.9 -9.999 -99.9 -99.99 -9.99
2019/05/16 12:24 EDT  -99.99 -99.99    7   81   11 -99.9 -99.9 -999.9 -9.9 -9.999 -99.9 -99.99 -9.99
2019/05/16 12:30 EDT  -99.99 -99.99    7   74   12 -99.9 -99.9 -999.9 -9.9 -9.999 -99.9 -99.99 -9.99
2019/05/16 12:36 EDT  -99.99 -99.99    7   93    9 -99.9 -99.9 -999.9 -9.9 -9.999 -99.9 -99.99 -9.99
2019/05/16 12:42 EDT  -99.99 -99.99    6   65    8 -99.9 -99.9 -999.9 -9.9 -9.999 -99.9 -99.99 -9.99
2019/05/16 12:48 EDT  -99.99 -99.99    9   92   11 -99.9 -99.9 -999.9 -9.9 -9.999 -99.9 -99.99 -9.99
2019/05/16 12:54 EDT  -99.99 -99.99    6   84   10 -99.9 -99.9 -999.9 -9.9 -9.999 -99.9 -99.99 -9.99
2019/05/16 13:00 EDT  -99.99 -99.99    5   92    9 -99.9 -99.9 -999.9 -9.9 -9.999 -99.9 -99.99 -9.99
2019/05/16 13:06 EDT  -99.99 -99.99    8   81   11 -99.9 -99.9 -999.9 -9.9 -9.999 -99.9 -99.99 -9.99
2019/05/16 13:12 EDT  -99.99 -99.99    4  115    6 -99.9 -99.9 -999.9 -9.9 -9.999 -99.9 -99.99 -9.99
2019/05/16 13:18 EDT  -99.99 -99.99    7  114   10 -99.9 -99.9 -999.9 -9.9 -9.999 -99.9 -99.99 -9.99
2019/05/16 13:24 EDT  -99.99 -99.99    5  106    9 -99.9 -99.9 -999.9 -9.9 -9.999 -99.9 -99.99 -9.99
2019/05/16 13:30 EDT  -99.99 -99.99    4   66    6 -99.9 -99.9 -999.9 -9.9 -9.999 -99.9 -99.99 -9.99
2019/05/16 13:36 EDT  -99.99 -99.99    7   57   10 -99.9 -99.9 -999.9 -9.9 -9.999 -99.9 -99.99 -9.99
2019/05/16 13:42 EDT  -99.99 -99.99    6   47   11 -99.9 -99.9 -999.9 -9.9 -9.999 -99.9 -99.99 -9.99
2019/05/16 13:48 EDT  -99.99 -99.99 -999 -999 -999 -99.9 -99.9 -999.9 -9.9 -9.999 -99.9 -99.99 -9.99
2019/05/16 13:54 EDT  -99.99 -99.99    4   84    7 -99.9 -99.9 -999.9 -9.9 -9.999 -99.9 -99.99 -9.99
2019/05/16 14:00 EDT  -99.99 -99.99    5   92    7 -99.9 -99.9 -999.9 -9.9 -9.999 -99.9 -99.99 -9.99
2019/05/16 14:06 EDT  -99.99 -99.99    5   45    9 -99.9 -99.9 -999.9 -9.9 -9.999 -99.9 -99.99 -9.99
2019/05/16 14:12 EDT  -99.99 -99.99    9   75   14 -99.9 -99.9 -999.9 -9.9 -9.999 -99.9 -99.99 -9.99
2019/05/16 14:18 EDT  -99.99 -99.99    8  108   11 -99.9 -99.9 -999.9 -9.9 -9.999 -99.9 -99.99 -9.99
2019/05/16 14:24 EDT  -99.99 -99.99 -999 -999 -999 -99.9 -99.9 -999.9 -9.9 -9.999 -99.9 -99.99 -9.99
2019/05/16 14:30 EDT  -99.99 -99.99    5  104    9 -99.9 -99.9 -999.9 -9.9 -9.999 -99.9 -99.99 -9.99
2019/05/16 14:36 EDT  -99.99 -99.99    7   94    8 -99.9 -99.9 -999.9 -9.9 -9.999 -99.9 -99.99 -9.99
2019/05/16 14:42 EDT  -99.99 -99.99    5   68    6 -99.9 -99.9 -999.9 -9.9 -9.999 -99.9 -99.99 -9.99
2019/05/16 14:48 EDT  -99.99 -99.99    5  118    8 -99.9 -99.9 -999.9 -9.9 -9.999 -99.9 -99.99 -9.99
2019/05/16 14:54 EDT  -99.99 -99.99    5   99    9 -99.9 -99.9 -999.9 -9.9 -9.999 -99.9 -99.99 -9.99
2019/05/16 15:00 EDT  -99.99 -99.99    7  125   11 -99.9 -99.9 -999.9 -9.9 -9.999 -99.9 -99.99 -9.99
2019/05/16 15:06 EDT  -99.99 -99.99    7   79   11 -99.9 -99.9 -999.9 -9.9 -9.999 -99.9 -99.99 -9.99
2019/05/16 15:12 EDT  -99.99 -99.99    5  114    8 -99.9 -99.9 -999.9 -9.9 -9.999 -99.9 -99.99 -9.99
2019/05/16 15:18 EDT  -99.99 -99.99    7   56    9 -99.9 -99.9 -999.9 -9.9 -9.999 -99.9 -99.99 -9.99
2019/05/16 15:24 EDT  -99.99 -99.99    5   35    6 -99.9 -99.9 -999.9 -9.9 -9.999 -99.9 -99.99 -9.99
2019/05/16 15:30 EDT  -99.99 -99.99    7   97   10 -99.9 -99.9 -999.9 -9.9 -9.999 -99.9 -99.99 -9.99
2019/05/16 15:36 EDT  -99.99 -99.99    4  103    7 -99.9 -99.9 -999.9 -9.9 -9.999 -99.9 -99.99 -9.99
2019/05/16 15:42 EDT  -99.99 -99.99    4   89    7 -99.9 -99.9 -999.9 -9.9 -9.999 -99.9 -99.99 -9.99
2019/05/16 15:48 EDT  -99.99 -99.99    7   86   11 -99.9 -99.9 -999.9 -9.9 -9.999 -99.9 -99.99 -9.99
2019/05/16 15:54 EDT  -99.99 -99.99    3   84    7 -99.9 -99.9 -999.9 -9.9 -9.999 -99.9 -99.99 -9.99
2019/05/16 16:00 EDT  -99.99 -99.99    6  119   11 -99.9 -99.9 -999.9 -9.9 -9.999 -99.9 -99.99 -9.99
2019/05/16 16:06 EDT  -99.99 -99.99 -999 -999 -999 -99.9 -99.9 -999.9 -9.9 -9.999 -99.9 -99.99 -9.99
2019/05/16 16:12 EDT  -99.99 -99.99    4   66    7 -99.9 -99.9 -999.9 -9.9 -9.999 -99.9 -99.99 -9.99
2019/05/16 16:18 EDT  -99.99 -99.99    3   77    6 -99.9 -99.9 -999.9 -9.9 -9.999 -99.9 -99.99 -9.99
2019/05/16 16:24 EDT  -99.99 -99.99    5   15    7 -99.9 -99.9 -999.9 -9.9 -9.999 -99.9 -99.99 -9.99
2019/05/16 16:30 EDT  -99.99 -99.99    4   60    7 -99.9 -99.9 -999.9 -9.9 -9.999 -99.9 -99.99 -9.99
2019/05/16 16:36 EDT  -99.99 -99.99    2   84    4 -99.9 -99.9 -999.9 -9.9 -9.999 -99.9 -99.99 -9.99
2019/05/16 16:42 EDT  -99.99 -99.99    4    9    6 -99.9 -99.9 -999.9 -9.9 -9.999 -99.9 -99.99 -9.99
2019/05/16 16:48 EDT  -99.99 -99.99    5   73    8 -99.9 -99.9 -999.9 -9.9 -9.999 -99.9 -99.99 -9.99
2019/05/16 16:54 EDT  -99.99 -99.99    6   83    9 -99.9 -99.9 -999.9 -9.9 -9.999 -99.9 -99.99 -9.99
2019/05/16 17:00 EDT  -99.99 -99.99    5  112    9 -99.9 -99.9 -999.9 -9.9 -9.999 -99.9 -99.99 -9.99
2019/05/16 17:06 EDT  -99.99 -99.99    4   16    6 -99.9 -99.9 -999.9 -9.9 -9.999 -99.9 -99.99 -9.99
2019/05/16 17:12 EDT  -99.99 -99.99    3   73    5 -99.9 -99.9 -999.9 -9.9 -9.999 -99.9 -99.99 -9.99
2019/05/16 17:18 EDT  -99.99 -99.99    2   88    3 -99.9 -99.9 -999.9 -9.9 -9.999 -99.9 -99.99 -9.99
2019/05/16 17:24 EDT  -99.99 -99.99    5   63    7 -99.9 -99.9 -999.9 -9.9 -9.999 -99.9 -99.99 -9.99
2019/05/16 17:30 EDT  -99.99 -99.99    7  108   10 -99.9 -99.9 -999.9 -9.9 -9.999 -99.9 -99.99 -9.99
2019/05/16 17:36 EDT  -99.99 -99.99    4   62    6 -99.9 -99.9 -999.9 -9.9 -9.999 -99.9 -99.99 -9.99
2019/05/16 17:42 EDT  -99.99 -99.99    4  120    6 -99.9 -99.9 -999.9 -9.9 -9.999 -99.9 -99.99 -9.99
2019/05/16 17:48 EDT  -99.99 -99.99    5  128    6 -99.9 -99.9 -999.9 -9.9 -9.999 -99.9 -99.99 -9.99
2019/05/16 17:54 EDT  -99.99 -99.99    3  121    5 -99.9 -99.9 -999.9 -9.9 -9.999 -99.9 -99.99 -9.99
2019/05/16 18:00 EDT  -99.99 -99.99    3  111    4 -99.9 -99.9 -999.9 -9.9 -9.999 -99.9 -99.99 -9.99
2019/05/16 18:06 EDT  -99.99 -99.99    7  120   10 -99.9 -99.9 -999.9 -9.9 -9.999 -99.9 -99.99 -9.99
2019/05/16 18:12 EDT  -99.99 -99.99    6   92    8 -99.9 -99.9 -999.9 -9.9 -9.999 -99.9 -99.99 -9.99
2019/05/16 18:18 EDT  -99.99 -99.99    6   93    8 -99.9 -99.9 -999.9 -9.9 -9.999 -99.9 -99.99 -9.99
2019/05/16 18:24 EDT  -99.99 -99.99    5  103    8 -99.9 -99.9 -999.9 -9.9 -9.999 -99.9 -99.99 -9.99
2019/05/16 18:30 EDT  -99.99 -99.99    5   61    8 -99.9 -99.9 -999.9 -9.9 -9.999 -99.9 -99.99 -9.99
2019/05/16 18:36 EDT  -99.99 -99.99    6   90    8 -99.9 -99.9 -999.9 -9.9 -9.999 -99.9 -99.99 -9.99
2019/05/16 18:42 EDT  -99.99 -99.99    4   74    6 -99.9 -99.9 -999.9 -9.9 -9.999 -99.9 -99.99 -9.99
2019/05/16 18:48 EDT  -99.99 -99.99    6   79    8 -99.9 -99.9 -999.9 -9.9 -9.999 -99.9 -99.99 -9.99
2019/05/16 18:54 EDT  -99.99 -99.99    4   96    7 -99.9 -99.9 -999.9 -9.9 -9.999 -99.9 -99.99 -9.99
2019/05/16 19:00 EDT  -99.99 -99.99    3   97    5 -99.9 -99.9 -999.9 -9.9 -9.999 -99.9 -99.99 -9.99
2019/05/16 19:06 EDT  -99.99 -99.99    5  108    6 -99.9 -99.9 -999.9 -9.9 -9.999 -99.9 -99.99 -9.99
2019/05/16 19:12 EDT  -99.99 -99.99    3   84    4 -99.9 -99.9 -999.9 -9.9 -9.999 -99.9 -99.99 -9.99
2019/05/16 19:18 EDT  -99.99 -99.99    4   49    5 -99.9 -99.9 -999.9 -9.9 -9.999 -99.9 -99.99 -9.99
2019/05/16 19:24 EDT  -99.99 -99.99    4   85    6 -99.9 -99.9 -999.9 -9.9 -9.999 -99.9 -99.99 -9.99
2019/05/16 19:30 EDT  -99.99 -99.99    5   82    6 -99.9 -99.9 -999.9 -9.9 -9.999 -99.9 -99.99 -9.99
2019/05/16 19:36 EDT  -99.99 -99.99    5   84    7 -99.9 -99.9 -999.9 -9.9 -9.999 -99.9 -99.99 -9.99
2019/05/16 19:42 EDT  -99.99 -99.99    5   83    6 -99.9 -99.9 -999.9 -9.9 -9.999 -99.9 -99.99 -9.99
2019/05/16 19:48 EDT  -99.99 -99.99    5   77    7 -99.9 -99.9 -999.9 -9.9 -9.999 -99.9 -99.99 -9.99
2019/05/16 19:54 EDT  -99.99 -99.99    5   84    8 -99.9 -99.9 -999.9 -9.9 -9.999 -99.9 -99.99 -9.99
2019/05/16 20:00 EDT  -99.99 -99.99    7   85   12 -99.9 -99.9 -999.9 -9.9 -9.999 -99.9 -99.99 -9.99
2019/05/16 20:06 EDT  -99.99 -99.99    8   81   11 -99.9 -99.9 -999.9 -9.9 -9.999 -99.9 -99.99 -9.99
2019/05/16 20:12 EDT  -99.99 -99.99    8   84   10 -99.9 -99.9 -999.9 -9.9 -9.999 -99.9 -99.99 -9.99
2019/05/16 20:18 EDT  -99.99 -99.99    7   78   10 -99.9 -99.9 -999.9 -9.9 -9.999 -99.9 -99.99 -9.99
2019/05/16 20:24 EDT  -99.99 -99.99    8   86   12 -99.9 -99.9 -999.9 -9.9 -9.999 -99.9 -99.99 -9.99
2019/05/16 20:30 EDT  -99.99 -99.99    9  106   12 -99.9 -99.9 -999.9 -9.9 -9.999 -99.9 -99.99 -9.99
2019/05/16 20:36 EDT  -99.99 -99.99    9  119   14 -99.9 -99.9 -999.9 -9.9 -9.999 -99.9 -99.99 -9.99
2019/05/16 20:42 EDT  -99.99 -99.99   12  111   15 -99.9 -99.9 -999.9 -9.9 -9.999 -99.9 -99.99 -9.99
2019/05/16 20:48 EDT  -99.99 -99.99   13  115   17 -99.9 -99.9 -999.9 -9.9 -9.999 -99.9 -99.99 -9.99
2019/05/16 20:54 EDT  -99.99 -99.99   10  110   13 -99.9 -99.9 -999.9 -9.9 -9.999 -99.9 -99.99 -9.99
2019/05/16 21:00 EDT  -99.99 -99.99    8  113   13 -99.9 -99.9 -999.9 -9.9 -9.999 -99.9 -99.99 -9.99
2019/05/16 21:06 EDT  -99.99 -99.99    9  117   13 -99.9 -99.9 -999.9 -9.9 -9.999 -99.9 -99.99 -9.99
2019/05/16 21:12 EDT  -99.99 -99.99    8  107   14 -99.9 -99.9 -999.9 -9.9 -9.999 -99.9 -99.99 -9.99
2019/05/16 21:18 EDT  -99.99 -99.99   10  115   13 -99.9 -99.9 -999.9 -9.9 -9.999 -99.9 -99.99 -9.99
2019/05/16 21:24 EDT  -99.99 -99.99   10  120   13 -99.9 -99.9 -999.9 -9.9 -9.999 -99.9 -99.99 -9.99
2019/05/16 21:30 EDT  -99.99 -99.99   10  116   14 -99.9 -99.9 -999.9 -9.9 -9.999 -99.9 -99.99 -9.99
2019/05/16 21:36 EDT  -99.99 -99.99   11  107   14 -99.9 -99.9 -999.9 -9.9 -9.999 -99.9 -99.99 -9.99
2019/05/16 21:42 EDT  -99.99 -99.99   10  110   15 -99.9 -99.9 -999.9 -9.9 -9.999 -99.9 -99.99 -9.99
2019/05/16 21:48 EDT  -99.99 -99.99    9  113   12 -99.9 -99.9 -999.9 -9.9 -9.999 -99.9 -99.99 -9.99
2019/05/16 21:54 EDT  -99.99 -99.99    7  114   10 -99.9 -99.9 -999.9 -9.9 -9.999 -99.9 -99.99 -9.99
2019/05/16 22:00 EDT  -99.99 -99.99    8  126   11 -99.9 -99.9 -999.9 -9.9 -9.999 -99.9 -99.99 -9.99
2019/05/16 22:06 EDT  -99.99 -99.99   10  111   13 -99.9 -99.9 -999.9 -9.9 -9.999 -99.9 -99.99 -9.99
2019/05/16 22:12 EDT  -99.99 -99.99    8  106   12 -99.9 -99.9 -999.9 -9.9 -9.999 -99.9 -99.99 -9.99
2019/05/16 22:18 EDT  -99.99 -99.99    7  108   11 -99.9 -99.9 -999.9 -9.9 -9.999 -99.9 -99.99 -9.99
2019/05/16 22:24 EDT  -99.99 -99.99    8  103   12 -99.9 -99.9 -999.9 -9.9 -9.999 -99.9 -99.99 -9.99
2019/05/16 22:30 EDT  -99.99 -99.99    9  109   11 -99.9 -99.9 -999.9 -9.9 -9.999 -99.9 -99.99 -9.99
2019/05/16 22:36 EDT  -99.99 -99.99    8  106   11 -99.9 -99.9 -999.9 -9.9 -9.999 -99.9 -99.99 -9.99
2019/05/16 22:42 EDT  -99.99 -99.99    8  106   12 -99.9 -99.9 -999.9 -9.9 -9.999 -99.9 -99.99 -9.99
2019/05/16 22:48 EDT  -99.99 -99.99    6   88    9 -99.9 -99.9 -999.9 -9.9 -9.999 -99.9 -99.99 -9.99
2019/05/16 22:54 EDT  -99.99 -99.99   10  101   13 -99.9 -99.9 -999.9 -9.9 -9.999 -99.9 -99.99 -9.99
2019/05/16 23:00 EDT  -99.99 -99.99    9  107   13 -99.9 -99.9 -999.9 -9.9 -9.999 -99.9 -99.99 -9.99
2019/05/16 23:06 EDT  -99.99 -99.99    9  103   12 -99.9 -99.9 -999.9 -9.9 -9.999 -99.9 -99.99 -9.99
2019/05/16 23:12 EDT  -99.99 -99.99   10   99   13 -99.9 -99.9 -999.9 -9.9 -9.999 -99.9 -99.99 -9.99
2019/05/16 23:18 EDT  -99.99 -99.99    8  112   10 -99.9 -99.9 -999.9 -9.9 -9.999 -99.9 -99.99 -9.99
2019/05/16 23:24 EDT  -99.99 -99.99    8  115   12 -99.9 -99.9 -999.9 -9.9 -9.999 -99.9 -99.99 -9.99
2019/05/16 23:30 EDT  -99.99 -99.99    6  106    8 -99.9 -99.9 -999.9 -9.9 -9.999 -99.9 -99.99 -9.99
2019/05/16 23:36 EDT  -99.99 -99.99 -999 -999 -999 -99.9 -99.9 -999.9 -9.9 -9.999 -99.9 -99.99 -9.99
2019/05/16 23:42 EDT  -99.99 -99.99   11  112   13 -99.9 -99.9 -999.9 -9.9 -9.999 -99.9 -99.99 -9.99
2019/05/16 23:48 EDT  -99.99 -99.99    9  117   12 -99.9 -99.9 -999.9 -9.9 -9.999 -99.9 -99.99 -9.99
2019/05/16 23:54 EDT  -99.99 -99.99    9  121   12 -99.9 -99.9 -999.9 -9.9 -9.999 -99.9 -99.99 -9.99
2019/05/17 00:00 EDT  -99.99 -99.99    6  130    9 -99.9 -99.9 -999.9 -9.9 -9.999 -99.9 -99.99 -9.99
2019/05/17 00:06 EDT  -99.99 -99.99 -999 -999 -999 -99.9 -99.9 -999.9 -9.9 -9.999 -99.9 -99.99 -9.99
2019/05/17 00:12 EDT  -99.99 -99.99    5  129    7 -99.9 -99.9 -999.9 -9.9 -9.999 -99.9 -99.99 -9.99
2019/05/17 00:18 EDT  -99.99 -99.99    6  111    8 -99.9 -99.9 -999.9 -9.9 -9.999 -99.9 -99.99 -9.99
2019/05/17 00:24 EDT  -99.99 -99.99    5   90    7 -99.9 -99.9 -999.9 -9.9 -9.999 -99.9 -99.99 -9.99
2019/05/17 00:30 EDT  -99.99 -99.99    7  116   10 -99.9 -99.9 -999.9 -9.9 -9.999 -99.9 -99.99 -9.99
2019/05/17 00:36 EDT  -99.99 -99.99    6  106    9 -99.9 -99.9 -999.9 -9.9 -9.999 -99.9 -99.99 -9.99
2019/05/17 00:42 EDT  -99.99 -99.99    6   99    9 -99.9 -99.9 -999.9 -9.9 -9.999 -99.9 -99.99 -9.99
2019/05/17 00:48 EDT  -99.99 -99.99    6   94    8 -99.9 -99.9 -999.9 -9.9 -9.999 -99.9 -99.99 -9.99
2019/05/17 00:54 EDT  -99.99 -99.99    6   92    7 -99.9 -99.9 -999.9 -9.9 -9.999 -99.9 -99.99 -9.99
2019/05/17 01:00 EDT  -99.99 -99.99    5   91    7 -99.9 -99.9 -999.9 -9.9 -9.999 -99.9 -99.99 -9.99
2019/05/17 01:06 EDT  -99.99 -99.99    6   88    8 -99.9 -99.9 -999.9 -9.9 -9.999 -99.9 -99.99 -9.99
2019/05/17 01:12 EDT  -99.99 -99.99    6  113    8 -99.9 -99.9 -999.9 -9.9 -9.999 -99.9 -99.99 -9.99
2019/05/17 01:18 EDT  -99.99 -99.99    8  112    9 -99.9 -99.9 -999.9 -9.9 -9.999 -99.9 -99.99 -9.99
2019/05/17 01:24 EDT  -99.99 -99.99    6  104    9 -99.9 -99.9 -999.9 -9.9 -9.999 -99.9 -99.99 -9.99
2019/05/17 01:30 EDT  -99.99 -99.99    6  130    8 -99.9 -99.9 -999.9 -9.9 -9.999 -99.9 -99.99 -9.99
2019/05/17 01:36 EDT  -99.99 -99.99    4  126    5 -99.9 -99.9 -999.9 -9.9 -9.999 -99.9 -99.99 -9.99
2019/05/17 01:42 EDT  -99.99 -99.99    4  113    7 -99.9 -99.9 -999.9 -9.9 -9.999 -99.9 -99.99 -9.99
2019/05/17 01:48 EDT  -99.99 -99.99    5  115    6 -99.9 -99.9 -999.9 -9.9 -9.999 -99.9 -99.99 -9.99
2019/05/17 01:54 EDT  -99.99 -99.99    4  115    6 -99.9 -99.9 -999.9 -9.9 -9.999 -99.9 -99.99 -9.99
2019/05/17 02:00 EDT  -99.99 -99.99    4  101    5 -99.9 -99.9 -999.9 -9.9 -9.999 -99.9 -99.99 -9.99
2019/05/17 02:06 EDT  -99.99 -99.99    4  113    5 -99.9 -99.9 -999.9 -9.9 -9.999 -99.9 -99.99 -9.99
2019/05/17 02:12 EDT  -99.99 -99.99    4  117    5 -99.9 -99.9 -999.9 -9.9 -9.999 -99.9 -99.99 -9.99
2019/05/17 02:18 EDT  -99.99 -99.99    5  116    6 -99.9 -99.9 -999.9 -9.9 -9.999 -99.9 -99.99 -9.99
2019/05/17 02:24 EDT  -99.99 -99.99    4  107    5 -99.9 -99.9 -999.9 -9.9 -9.999 -99.9 -99.99 -9.99
2019/05/17 02:30 EDT  -99.99 -99.99    3  118    6 -99.9 -99.9 -999.9 -9.9 -9.999 -99.9 -99.99 -9.99
2019/05/17 02:36 EDT  -99.99 -99.99    2  124    4 -99.9 -99.9 -999.9 -9.9 -9.999 -99.9 -99.99 -9.99
2019/05/17 02:42 EDT  -99.99 -99.99    3   99    5 -99.9 -99.9 -999.9 -9.9 -9.999 -99.9 -99.99 -9.99
2019/05/17 02:48 EDT  -99.99 -99.99    4  102    6 -99.9 -99.9 -999.9 -9.9 -9.999 -99.9 -99.99 -9.99
2019/05/17 02:54 EDT  -99.99 -99.99    3  128    5 -99.9 -99.9 -999.9 -9.9 -9.999 -99.9 -99.99 -9.99
2019/05/17 03:00 EDT  -99.99 -99.99    4   99    5 -99.9 -99.9 -999.9 -9.9 -9.999 -99.9 -99.99 -9.99
2019/05/17 03:06 EDT  -99.99 -99.99    3   77    4 -99.9 -99.9 -999.9 -9.9 -9.999 -99.9 -99.99 -9.99
2019/05/17 03:12 EDT  -99.99 -99.99    4   90    5 -99.9 -99.9 -999.9 -9.9 -9.999 -99.9 -99.99 -9.99
2019/05/17 03:18 EDT  -99.99 -99.99    4   76    6 -99.9 -99.9 -999.9 -9.9 -9.999 -99.9 -99.99 -9.99
2019/05/17 03:24 EDT  -99.99 -99.99    5   89    6 -99.9 -99.9 -999.9 -9.9 -9.999 -99.9 -99.99 -9.99
2019/05/17 03:30 EDT  -99.99 -99.99    4   90    6 -99.9 -99.9 -999.9 -9.9 -9.999 -99.9 -99.99 -9.99
2019/05/17 03:36 EDT  -99.99 -99.99    3   94    5 -99.9 -99.9 -999.9 -9.9 -9.999 -99.9 -99.99 -9.99
2019/05/17 03:42 EDT  -99.99 -99.99    6   97    8 -99.9 -99.9 -999.9 -9.9 -9.999 -99.9 -99.99 -9.99
2019/05/17 03:48 EDT  -99.99 -99.99    4  104    6 -99.9 -99.9 -999.9 -9.9 -9.999 -99.9 -99.99 -9.99
2019/05/17 03:54 EDT  -99.99 -99.99    4   91    7 -99.9 -99.9 -999.9 -9.9 -9.999 -99.9 -99.99 -9.99
2019/05/17 04:00 EDT  -99.99 -99.99    4   86    5 -99.9 -99.9 -999.9 -9.9 -9.999 -99.9 -99.99 -9.99
2019/05/17 04:06 EDT  -99.99 -99.99    5   81    6 -99.9 -99.9 -999.9 -9.9 -9.999 -99.9 -99.99 -9.99
2019/05/17 04:12 EDT  -99.99 -99.99    3   80    4 -99.9 -99.9 -999.9 -9.9 -9.999 -99.9 -99.99 -9.99
2019/05/17 04:18 EDT  -99.99 -99.99    4   75    6 -99.9 -99.9 -999.9 -9.9 -9.999 -99.9 -99.99 -9.99
2019/05/17 04:24 EDT  -99.99 -99.99    5   83    6 -99.9 -99.9 -999.9 -9.9 -9.999 -99.9 -99.99 -9.99
2019/05/17 04:30 EDT  -99.99 -99.99    2   78    4 -99.9 -99.9 -999.9 -9.9 -9.999 -99.9 -99.99 -9.99
2019/05/17 04:36 EDT  -99.99 -99.99    4  114    5 -99.9 -99.9 -999.9 -9.9 -9.999 -99.9 -99.99 -9.99
2019/05/17 04:42 EDT  -99.99 -99.99    3  119    4 -99.9 -99.9 -999.9 -9.9 -9.999 -99.9 -99.99 -9.99
2019/05/17 04:48 EDT  -99.99 -99.99    4   99    6 -99.9 -99.9 -999.9 -9.9 -9.999 -99.9 -99.99 -9.99
2019/05/17 04:54 EDT  -99.99 -99.99    3   88    5 -99.9 -99.9 -999.9 -9.9 -9.999 -99.9 -99.99 -9.99
2019/05/17 05:00 EDT  -99.99 -99.99    3   98    4 -99.9 -99.9 -999.9 -9.9 -9.999 -99.9 -99.99 -9.99
2019/05/17 05:06 EDT  -99.99 -99.99    3   90    5 -99.9 -99.9 -999.9 -9.9 -9.999 -99.9 -99.99 -9.99
2019/05/17 05:12 EDT  -99.99 -99.99    3  100    5 -99.9 -99.9 -999.9 -9.9 -9.999 -99.9 -99.99 -9.99
2019/05/17 05:18 EDT  -99.99 -99.99    4   87    6 -99.9 -99.9 -999.9 -9.9 -9.999 -99.9 -99.99 -9.99
2019/05/17 05:24 EDT  -99.99 -99.99    3   77    5 -99.9 -99.9 -999.9 -9.9 -9.999 -99.9 -99.99 -9.99
2019/05/17 05:30 EDT  -99.99 -99.99    5   96    7 -99.9 -99.9 -999.9 -9.9 -9.999 -99.9 -99.99 -9.99
2019/05/17 05:36 EDT  -99.99 -99.99    4   78    6 -99.9 -99.9 -999.9 -9.9 -9.999 -99.9 -99.99 -9.99
2019/05/17 05:42 EDT  -99.99 -99.99    5   79    6 -99.9 -99.9 -999.9 -9.9 -9.999 -99.9 -99.99 -9.99
2019/05/17 05:48 EDT  -99.99 -99.99    3   85    5 -99.9 -99.9 -999.9 -9.9 -9.999 -99.9 -99.99 -9.99
2019/05/17 05:54 EDT  -99.99 -99.99    4  100    5 -99.9 -99.9 -999.9 -9.9 -9.999 -99.9 -99.99 -9.99
2019/05/17 06:00 EDT  -99.99 -99.99    4   81    5 -99.9 -99.9 -999.9 -9.9 -9.999 -99.9 -99.99 -9.99
2019/05/17 06:06 EDT  -99.99 -99.99    4   91    6 -99.9 -99.9 -999.9 -9.9 -9.999 -99.9 -99.99 -9.99
2019/05/17 06:12 EDT  -99.99 -99.99    3   98    4 -99.9 -99.9 -999.9 -9.9 -9.999 -99.9 -99.99 -9.99
2019/05/17 06:18 EDT  -99.99 -99.99    3   87    5 -99.9 -99.9 -999.9 -9.9 -9.999 -99.9 -99.99 -9.99
2019/05/17 06:24 EDT  -99.99 -99.99    4   79    5 -99.9 -99.9 -999.9 -9.9 -9.999 -99.9 -99.99 -9.99
2019/05/17 06:30 EDT  -99.99 -99.99    3   87    4 -99.9 -99.9 -999.9 -9.9 -9.999 -99.9 -99.99 -9.99
2019/05/17 06:36 EDT  -99.99 -99.99    3   93    4 -99.9 -99.9 -999.9 -9.9 -9.999 -99.9 -99.99 -9.99
2019/05/17 06:42 EDT  -99.99 -99.99    2  106    4 -99.9 -99.9 -999.9 -9.9 -9.999 -99.9 -99.99 -9.99
2019/05/17 06:48 EDT  -99.99 -99.99    3  102    4 -99.9 -99.9 -999.9 -9.9 -9.999 -99.9 -99.99 -9.99
2019/05/17 06:54 EDT  -99.99 -99.99    4  118    5 -99.9 -99.9 -999.9 -9.9 -9.999 -99.9 -99.99 -9.99
2019/05/17 07:00 EDT  -99.99 -99.99    3   75    4 -99.9 -99.9 -999.9 -9.9 -9.999 -99.9 -99.99 -9.99
2019/05/17 07:06 EDT  -99.99 -99.99    3   92    5 -99.9 -99.9 -999.9 -9.9 -9.999 -99.9 -99.99 -9.99
2019/05/17 07:12 EDT  -99.99 -99.99    3  108    5 -99.9 -99.9 -999.9 -9.9 -9.999 -99.9 -99.99 -9.99
2019/05/17 07:18 EDT  -99.99 -99.99    5  123    6 -99.9 -99.9 -999.9 -9.9 -9.999 -99.9 -99.99 -9.99
2019/05/17 07:24 EDT  -99.99 -99.99    4   90    5 -99.9 -99.9 -999.9 -9.9 -9.999 -99.9 -99.99 -9.99
2019/05/17 07:30 EDT  -99.99 -99.99    3   91    6 -99.9 -99.9 -999.9 -9.9 -9.999 -99.9 -99.99 -9.99
2019/05/17 07:36 EDT  -99.99 -99.99    4   82    5 -99.9 -99.9 -999.9 -9.9 -9.999 -99.9 -99.99 -9.99
2019/05/17 07:42 EDT  -99.99 -99.99    5  120    8 -99.9 -99.9 -999.9 -9.9 -9.999 -99.9 -99.99 -9.99
2019/05/17 07:48 EDT  -99.99 -99.99    4  102    6 -99.9 -99.9 -999.9 -9.9 -9.999 -99.9 -99.99 -9.99
2019/05/17 07:54 EDT  -99.99 -99.99    4  123    5 -99.9 -99.9 -999.9 -9.9 -9.999 -99.9 -99.99 -9.99
2019/05/17 08:00 EDT  -99.99 -99.99    5  124    6 -99.9 -99.9 -999.9 -9.9 -9.999 -99.9 -99.99 -9.99
2019/05/17 08:06 EDT  -99.99 -99.99    6  114    8 -99.9 -99.9 -999.9 -9.9 -9.999 -99.9 -99.99 -9.99
2019/05/17 08:12 EDT  -99.99 -99.99    6  104    7 -99.9 -99.9 -999.9 -9.9 -9.999 -99.9 -99.99 -9.99
2019/05/17 08:18 EDT  -99.99 -99.99    4  114    7 -99.9 -99.9 -999.9 -9.9 -9.999 -99.9 -99.99 -9.99
2019/05/17 08:24 EDT  -99.99 -99.99    5  111    6 -99.9 -99.9 -999.9 -9.9 -9.999 -99.9 -99.99 -9.99
2019/05/17 08:30 EDT  -99.99 -99.99    6  112    9 -99.9 -99.9 -999.9 -9.9 -9.999 -99.9 -99.99 -9.99
2019/05/17 08:36 EDT  -99.99 -99.99    4  115    6 -99.9 -99.9 -999.9 -9.9 -9.999 -99.9 -99.99 -9.99
2019/05/17 08:42 EDT  -99.99 -99.99    6  121    8 -99.9 -99.9 -999.9 -9.9 -9.999 -99.9 -99.99 -9.99
2019/05/17 08:48 EDT  -99.99 -99.99    5  126    6 -99.9 -99.9 -999.9 -9.9 -9.999 -99.9 -99.99 -9.99
2019/05/17 08:54 EDT  -99.99 -99.99    3  118    8 -99.9 -99.9 -999.9 -9.9 -9.999 -99.9 -99.99 -9.99
2019/05/17 09:00 EDT  -99.99 -99.99    5  108    8 -99.9 -99.9 -999.9 -9.9 -9.999 -99.9 -99.99 -9.99
2019/05/17 09:06 EDT  -99.99 -99.99    4   80    6 -99.9 -99.9 -999.9 -9.9 -9.999 -99.9 -99.99 -9.99
2019/05/17 09:12 EDT  -99.99 -99.99    6  114    9 -99.9 -99.9 -999.9 -9.9 -9.999 -99.9 -99.99 -9.99
2019/05/17 09:18 EDT  -99.99 -99.99    5  124    7 -99.9 -99.9 -999.9 -9.9 -9.999 -99.9 -99.99 -9.99
2019/05/17 09:24 EDT  -99.99 -99.99    4  101    7 -99.9 -99.9 -999.9 -9.9 -9.999 -99.9 -99.99 -9.99
2019/05/17 09:30 EDT  -99.99 -99.99    4   99    5 -99.9 -99.9 -999.9 -9.9 -9.999 -99.9 -99.99 -9.99
2019/05/17 09:36 EDT  -99.99 -99.99    4  120    7 -99.9 -99.9 -999.9 -9.9 -9.999 -99.9 -99.99 -9.99
2019/05/17 09:42 EDT  -99.99 -99.99    4  118    6 -99.9 -99.9 -999.9 -9.9 -9.999 -99.9 -99.99 -9.99
2019/05/17 09:48 EDT  -99.99 -99.99    4   89    6 -99.9 -99.9 -999.9 -9.9 -9.999 -99.9 -99.99 -9.99
2019/05/17 09:54 EDT  -99.99 -99.99    3  120    4 -99.9 -99.9 -999.9 -9.9 -9.999 -99.9 -99.99 -9.99
2019/05/17 10:00 EDT  -99.99 -99.99    3   75    5 -99.9 -99.9 -999.9 -9.9 -9.999 -99.9 -99.99 -9.99
2019/05/17 10:06 EDT  -99.99 -99.99    2  109    4 -99.9 -99.9 -999.9 -9.9 -9.999 -99.9 -99.99 -9.99
2019/05/17 10:12 EDT  -99.99 -99.99    2   98    4 -99.9 -99.9 -999.9 -9.9 -9.999 -99.9 -99.99 -9.99
2019/05/17 10:18 EDT  -99.99 -99.99 -999 -999 -999 -99.9 -99.9 -999.9 -9.9 -9.999 -99.9 -99.99 -9.99
2019/05/17 10:24 EDT  -99.99 -99.99    2   66    4 -99.9 -99.9 -999.9 -9.9 -9.999 -99.9 -99.99 -9.99
2019/05/17 10:30 EDT  -99.99 -99.99    2   50    4 -99.9 -99.9 -999.9 -9.9 -9.999 -99.9 -99.99 -9.99
2019/05/17 10:36 EDT  -99.99 -99.99    2  104    2 -99.9 -99.9 -999.9 -9.9 -9.999 -99.9 -99.99 -9.99
2019/05/17 10:42 EDT  -99.99 -99.99    1   96    3 -99.9 -99.9 -999.9 -9.9 -9.999 -99.9 -99.99 -9.99
2019/05/17 10:48 EDT  -99.99 -99.99    3  110    5 -99.9 -99.9 -999.9 -9.9 -9.999 -99.9 -99.99 -9.99
2019/05/17 10:54 EDT  -99.99 -99.99    2   45    3 -99.9 -99.9 -999.9 -9.9 -9.999 -99.9 -99.99 -9.99
2019/05/17 11:00 EDT  -99.99 -99.99    3   81    4 -99.9 -99.9 -999.9 -9.9 -9.999 -99.9 -99.99 -9.99
2019/05/17 11:06 EDT  -99.99 -99.99    2   89    3 -99.9 -99.9 -999.9 -9.9 -9.999 -99.9 -99.99 -9.99
2019/05/17 11:12 EDT  -99.99 -99.99    3   71    6 -99.9 -99.9 -999.9 -9.9 -9.999 -99.9 -99.99 -9.99
2019/05/17 11:18 EDT  -99.99 -99.99    3   64    5 -99.9 -99.9 -999.9 -9.9 -9.999 -99.9 -99.99 -9.99
2019/05/17 11:24 EDT  -99.99 -99.99    3  121    4 -99.9 -99.9 -999.9 -9.9 -9.999 -99.9 -99.99 -9.99
2019/05/17 11:30 EDT  -99.99 -99.99    1  150    2 -99.9 -99.9 -999.9 -9.9 -9.999 -99.9 -99.99 -9.99
2019/05/17 11:36 EDT  -99.99 -99.99    3  159    5 -99.9 -99.9 -999.9 -9.9 -9.999 -99.9 -99.99 -9.99
2019/05/17 11:42 EDT  -99.99 -99.99    6  123    8 -99.9 -99.9 -999.9 -9.9 -9.999 -99.9 -99.99 -9.99
2019/05/17 11:48 EDT  -99.99 -99.99    4  121    6 -99.9 -99.9 -999.9 -9.9 -9.999 -99.9 -99.99 -9.99
2019/05/17 11:54 EDT  -99.99 -99.99    6  105    9 -99.9 -99.9 -999.9 -9.9 -9.999 -99.9 -99.99 -9.99
2019/05/17 12:00 EDT  -99.99 -99.99    5   50    9 -99.9 -99.9 -999.9 -9.9 -9.999 -99.9 -99.99 -9.99
2019/05/17 12:06 EDT  -99.99 -99.99    5  114    8 -99.9 -99.9 -999.9 -9.9 -9.999 -99.9 -99.99 -9.99
2019/05/17 12:12 EDT  -99.99 -99.99    5   75    9 -99.9 -99.9 -999.9 -9.9 -9.999 -99.9 -99.99 -9.99
2019/05/17 12:18 EDT  -99.99 -99.99    4   83    7 -99.9 -99.9 -999.9 -9.9 -9.999 -99.9 -99.99 -9.99
2019/05/17 12:24 EDT  -99.99 -99.99 -999 -999 -999 -99.9 -99.9 -999.9 -9.9 -9.999 -99.9 -99.99 -9.99
2019/05/17 12:30 EDT  -99.99 -99.99    5   93    8 -99.9 -99.9 -999.9 -9.9 -9.999 -99.9 -99.99 -9.99
2019/05/17 12:36 EDT  -99.99 -99.99    5   65    8 -99.9 -99.9 -999.9 -9.9 -9.999 -99.9 -99.99 -9.99
2019/05/17 12:42 EDT  -99.99 -99.99    6   80   10 -99.9 -99.9 -999.9 -9.9 -9.999 -99.9 -99.99 -9.99
2019/05/17 12:48 EDT  -99.99 -99.99    7   91   10 -99.9 -99.9 -999.9 -9.9 -9.999 -99.9 -99.99 -9.99
2019/05/17 12:54 EDT  -99.99 -99.99    5  106    8 -99.9 -99.9 -999.9 -9.9 -9.999 -99.9 -99.99 -9.99
2019/05/17 13:00 EDT  -99.99 -99.99    6  139   10 -99.9 -99.9 -999.9 -9.9 -9.999 -99.9 -99.99 -9.99
2019/05/17 13:06 EDT  -99.99 -99.99    7   67   13 -99.9 -99.9 -999.9 -9.9 -9.999 -99.9 -99.99 -9.99
2019/05/17 13:12 EDT  -99.99 -99.99    7   89   10 -99.9 -99.9 -999.9 -9.9 -9.999 -99.9 -99.99 -9.99
2019/05/17 13:18 EDT  -99.99 -99.99    7   82   10 -99.9 -99.9 -999.9 -9.9 -9.999 -99.9 -99.99 -9.99
2019/05/17 13:24 EDT  -99.99 -99.99    7   80   12 -99.9 -99.9 -999.9 -9.9 -9.999 -99.9 -99.99 -9.99
2019/05/17 13:30 EDT  -99.99 -99.99    2  100    5 -99.9 -99.9 -999.9 -9.9 -9.999 -99.9 -99.99 -9.99
2019/05/17 13:36 EDT  -99.99 -99.99    4   26    8 -99.9 -99.9 -999.9 -9.9 -9.999 -99.9 -99.99 -9.99
2019/05/17 13:42 EDT  -99.99 -99.99    5   84    7 -99.9 -99.9 -999.9 -9.9 -9.999 -99.9 -99.99 -9.99
2019/05/17 13:48 EDT  -99.99 -99.99    8   46   11 -99.9 -99.9 -999.9 -9.9 -9.999 -99.9 -99.99 -9.99
2019/05/17 13:54 EDT  -99.99 -99.99    2   15    7 -99.9 -99.9 -999.9 -9.9 -9.999 -99.9 -99.99 -9.99
2019/05/17 14:00 EDT  -99.99 -99.99 -999 -999 -999 -99.9 -99.9 -999.9 -9.9 -9.999 -99.9 -99.99 -9.99
2019/05/17 14:06 EDT  -99.99 -99.99    3   44    5 -99.9 -99.9 -999.9 -9.9 -9.999 -99.9 -99.99 -9.99
2019/05/17 14:12 EDT  -99.99 -99.99    9   40   12 -99.9 -99.9 -999.9 -9.9 -9.999 -99.9 -99.99 -9.99
2019/05/17 14:18 EDT  -99.99 -99.99    7   52   10 -99.9 -99.9 -999.9 -9.9 -9.999 -99.9 -99.99 -9.99
2019/05/17 14:24 EDT  -99.99 -99.99 -999 -999 -999 -99.9 -99.9 -999.9 -9.9 -9.999 -99.9 -99.99 -9.99
2019/05/17 14:30 EDT  -99.99 -99.99    7   74   12 -99.9 -99.9 -999.9 -9.9 -9.999 -99.9 -99.99 -9.99
2019/05/17 14:36 EDT  -99.99 -99.99    6   63   11 -99.9 -99.9 -999.9 -9.9 -9.999 -99.9 -99.99 -9.99
2019/05/17 14:42 EDT  -99.99 -99.99    4   86    9 -99.9 -99.9 -999.9 -9.9 -9.999 -99.9 -99.99 -9.99
2019/05/17 14:48 EDT  -99.99 -99.99    7   51   11 -99.9 -99.9 -999.9 -9.9 -9.999 -99.9 -99.99 -9.99
2019/05/17 14:54 EDT  -99.99 -99.99    5  100    9 -99.9 -99.9 -999.9 -9.9 -9.999 -99.9 -99.99 -9.99
2019/05/17 15:00 EDT  -99.99 -99.99    4   34    7 -99.9 -99.9 -999.9 -9.9 -9.999 -99.9 -99.99 -9.99
2019/05/17 15:06 EDT  -99.99 -99.99    7   24   10 -99.9 -99.9 -999.9 -9.9 -9.999 -99.9 -99.99 -9.99
2019/05/17 15:12 EDT  -99.99 -99.99    7   76   10 -99.9 -99.9 -999.9 -9.9 -9.999 -99.9 -99.99 -9.99
2019/05/17 15:18 EDT  -99.99 -99.99    6   57   10 -99.9 -99.9 -999.9 -9.9 -9.999 -99.9 -99.99 -9.99
2019/05/17 15:24 EDT  -99.99 -99.99    5   67    9 -99.9 -99.9 -999.9 -9.9 -9.999 -99.9 -99.99 -9.99
2019/05/17 15:30 EDT  -99.99 -99.99    8   40   11 -99.9 -99.9 -999.9 -9.9 -9.999 -99.9 -99.99 -9.99
2019/05/17 15:36 EDT  -99.99 -99.99    4   23    7 -99.9 -99.9 -999.9 -9.9 -9.999 -99.9 -99.99 -9.99
2019/05/17 15:42 EDT  -99.99 -99.99    6   30    8 -99.9 -99.9 -999.9 -9.9 -9.999 -99.9 -99.99 -9.99
2019/05/17 15:48 EDT  -99.99 -99.99    7   68   10 -99.9 -99.9 -999.9 -9.9 -9.999 -99.9 -99.99 -9.99
2019/05/17 15:54 EDT  -99.99 -99.99    8   76   12 -99.9 -99.9 -999.9 -9.9 -9.999 -99.9 -99.99 -9.99
2019/05/17 16:00 EDT  -99.99 -99.99    3   78    6 -99.9 -99.9 -999.9 -9.9 -9.999 -99.9 -99.99 -9.99
2019/05/17 16:06 EDT  -99.99 -99.99    4   75    8 -99.9 -99.9 -999.9 -9.9 -9.999 -99.9 -99.99 -9.99
2019/05/17 16:12 EDT  -99.99 -99.99    3   51    6 -99.9 -99.9 -999.9 -9.9 -9.999 -99.9 -99.99 -9.99
2019/05/17 16:18 EDT  -99.99 -99.99    7   86   10 -99.9 -99.9 -999.9 -9.9 -9.999 -99.9 -99.99 -9.99
2019/05/17 16:24 EDT  -99.99 -99.99    5   57    8 -99.9 -99.9 -999.9 -9.9 -9.999 -99.9 -99.99 -9.99
2019/05/17 16:30 EDT  -99.99 -99.99    5   40    7 -99.9 -99.9 -999.9 -9.9 -9.999 -99.9 -99.99 -9.99
2019/05/17 16:36 EDT  -99.99 -99.99    7   91   13 -99.9 -99.9 -999.9 -9.9 -9.999 -99.9 -99.99 -9.99
2019/05/17 16:42 EDT  -99.99 -99.99    9   89   12 -99.9 -99.9 -999.9 -9.9 -9.999 -99.9 -99.99 -9.99
2019/05/17 16:48 EDT  -99.99 -99.99    6   61   11 -99.9 -99.9 -999.9 -9.9 -9.999 -99.9 -99.99 -9.99
2019/05/17 16:54 EDT  -99.99 -99.99    5   47    7 -99.9 -99.9 -999.9 -9.9 -9.999 -99.9 -99.99 -9.99
2019/05/17 17:00 EDT  -99.99 -99.99    6  127   12 -99.9 -99.9 -999.9 -9.9 -9.999 -99.9 -99.99 -9.99
2019/05/17 17:06 EDT  -99.99 -99.99    7  134    9 -99.9 -99.9 -999.9 -9.9 -9.999 -99.9 -99.99 -9.99
2019/05/17 17:12 EDT  -99.99 -99.99    9   80   14 -99.9 -99.9 -999.9 -9.9 -9.999 -99.9 -99.99 -9.99
2019/05/17 17:18 EDT  -99.99 -99.99    7   66   12 -99.9 -99.9 -999.9 -9.9 -9.999 -99.9 -99.99 -9.99
2019/05/17 17:24 EDT  -99.99 -99.99    6   63    9 -99.9 -99.9 -999.9 -9.9 -9.999 -99.9 -99.99 -9.99
2019/05/17 17:30 EDT  -99.99 -99.99    6   87    9 -99.9 -99.9 -999.9 -9.9 -9.999 -99.9 -99.99 -9.99
2019/05/17 17:36 EDT  -99.99 -99.99    3  113    6 -99.9 -99.9 -999.9 -9.9 -9.999 -99.9 -99.99 -9.99
2019/05/17 17:42 EDT  -99.99 -99.99    8   84    9 -99.9 -99.9 -999.9 -9.9 -9.999 -99.9 -99.99 -9.99
2019/05/17 17:48 EDT  -99.99 -99.99    6   79    8 -99.9 -99.9 -999.9 -9.9 -9.999 -99.9 -99.99 -9.99
2019/05/17 17:54 EDT  -99.99 -99.99    5   76    8 -99.9 -99.9 -999.9 -9.9 -9.999 -99.9 -99.99 -9.99
2019/05/17 18:00 EDT  -99.99 -99.99    5   86    7 -99.9 -99.9 -999.9 -9.9 -9.999 -99.9 -99.99 -9.99
2019/05/17 18:06 EDT  -99.99 -99.99    3  119    5 -99.9 -99.9 -999.9 -9.9 -9.999 -99.9 -99.99 -9.99
2019/05/17 18:12 EDT  -99.99 -99.99    7   80    9 -99.9 -99.9 -999.9 -9.9 -9.999 -99.9 -99.99 -9.99
2019/05/17 18:18 EDT  -99.99 -99.99    4   85    7 -99.9 -99.9 -999.9 -9.9 -9.999 -99.9 -99.99 -9.99
2019/05/17 18:24 EDT  -99.99 -99.99    8   79   11 -99.9 -99.9 -999.9 -9.9 -9.999 -99.9 -99.99 -9.99
2019/05/17 18:30 EDT  -99.99 -99.99    5   52    9 -99.9 -99.9 -999.9 -9.9 -9.999 -99.9 -99.99 -9.99
2019/05/17 18:36 EDT  -99.99 -99.99    5   84    6 -99.9 -99.9 -999.9 -9.9 -9.999 -99.9 -99.99 -9.99
2019/05/17 18:42 EDT  -99.99 -99.99    6   94    7 -99.9 -99.9 -999.9 -9.9 -9.999 -99.9 -99.99 -9.99
2019/05/17 18:48 EDT  -99.99 -99.99    7   87    9 -99.9 -99.9 -999.9 -9.9 -9.999 -99.9 -99.99 -9.99
2019/05/17 18:54 EDT  -99.99 -99.99    7   86    9 -99.9 -99.9 -999.9 -9.9 -9.999 -99.9 -99.99 -9.99
2019/05/17 19:00 EDT  -99.99 -99.99    5   90    6 -99.9 -99.9 -999.9 -9.9 -9.999 -99.9 -99.99 -9.99
2019/05/17 19:06 EDT  -99.99 -99.99    4   85    5 -99.9 -99.9 -999.9 -9.9 -9.999 -99.9 -99.99 -9.99
2019/05/17 19:12 EDT  -99.99 -99.99    5   97    8 -99.9 -99.9 -999.9 -9.9 -9.999 -99.9 -99.99 -9.99
2019/05/17 19:18 EDT  -99.99 -99.99    5   76    7 -99.9 -99.9 -999.9 -9.9 -9.999 -99.9 -99.99 -9.99
2019/05/17 19:24 EDT  -99.99 -99.99    6   79    8 -99.9 -99.9 -999.9 -9.9 -9.999 -99.9 -99.99 -9.99
2019/05/17 19:30 EDT  -99.99 -99.99    3   72    5 -99.9 -99.9 -999.9 -9.9 -9.999 -99.9 -99.99 -9.99
2019/05/17 19:36 EDT  -99.99 -99.99    5   83    6 -99.9 -99.9 -999.9 -9.9 -9.999 -99.9 -99.99 -9.99
2019/05/17 19:42 EDT  -99.99 -99.99    6   84    7 -99.9 -99.9 -999.9 -9.9 -9.999 -99.9 -99.99 -9.99
2019/05/17 19:48 EDT  -99.99 -99.99    5   83    7 -99.9 -99.9 -999.9 -9.9 -9.999 -99.9 -99.99 -9.99
2019/05/17 19:54 EDT  -99.99 -99.99    3   58    5 -99.9 -99.9 -999.9 -9.9 -9.999 -99.9 -99.99 -9.99
2019/05/17 20:00 EDT  -99.99 -99.99    4   80    6 -99.9 -99.9 -999.9 -9.9 -9.999 -99.9 -99.99 -9.99
2019/05/17 20:06 EDT  -99.99 -99.99    5   79    8 -99.9 -99.9 -999.9 -9.9 -9.999 -99.9 -99.99 -9.99
2019/05/17 20:12 EDT  -99.99 -99.99    7   82    9 -99.9 -99.9 -999.9 -9.9 -9.999 -99.9 -99.99 -9.99
2019/05/17 20:18 EDT  -99.99 -99.99    5   85    7 -99.9 -99.9 -999.9 -9.9 -9.999 -99.9 -99.99 -9.99
2019/05/17 20:24 EDT  -99.99 -99.99    5   84    7 -99.9 -99.9 -999.9 -9.9 -9.999 -99.9 -99.99 -9.99
2019/05/17 20:30 EDT  -99.99 -99.99    7   86    9 -99.9 -99.9 -999.9 -9.9 -9.999 -99.9 -99.99 -9.99
2019/05/17 20:36 EDT  -99.99 -99.99    5   85    8 -99.9 -99.9 -999.9 -9.9 -9.999 -99.9 -99.99 -9.99
2019/05/17 20:42 EDT  -99.99 -99.99    4   85    6 -99.9 -99.9 -999.9 -9.9 -9.999 -99.9 -99.99 -9.99
2019/05/17 20:48 EDT  -99.99 -99.99    3   83    5 -99.9 -99.9 -999.9 -9.9 -9.999 -99.9 -99.99 -9.99
2019/05/17 20:54 EDT  -99.99 -99.99    4   82    6 -99.9 -99.9 -999.9 -9.9 -9.999 -99.9 -99.99 -9.99
2019/05/17 21:00 EDT  -99.99 -99.99    5   87    6 -99.9 -99.9 -999.9 -9.9 -9.999 -99.9 -99.99 -9.99
2019/05/17 21:06 EDT  -99.99 -99.99    5   82    7 -99.9 -99.9 -999.9 -9.9 -9.999 -99.9 -99.99 -9.99
2019/05/17 21:12 EDT  -99.99 -99.99    5   78    7 -99.9 -99.9 -999.9 -9.9 -9.999 -99.9 -99.99 -9.99
2019/05/17 21:18 EDT  -99.99 -99.99    6   79    8 -99.9 -99.9 -999.9 -9.9 -9.999 -99.9 -99.99 -9.99
2019/05/17 21:24 EDT  -99.99 -99.99    5   83    6 -99.9 -99.9 -999.9 -9.9 -9.999 -99.9 -99.99 -9.99
2019/05/17 21:30 EDT  -99.99 -99.99    6   81    7 -99.9 -99.9 -999.9 -9.9 -9.999 -99.9 -99.99 -9.99
2019/05/17 21:36 EDT  -99.99 -99.99    5   85    8 -99.9 -99.9 -999.9 -9.9 -9.999 -99.9 -99.99 -9.99
2019/05/17 21:42 EDT  -99.99 -99.99    5   83    7 -99.9 -99.9 -999.9 -9.9 -9.999 -99.9 -99.99 -9.99
2019/05/17 21:48 EDT  -99.99 -99.99    6   89    9 -99.9 -99.9 -999.9 -9.9 -9.999 -99.9 -99.99 -9.99
2019/05/17 21:54 EDT  -99.99 -99.99    5   87    6 -99.9 -99.9 -999.9 -9.9 -9.999 -99.9 -99.99 -9.99
2019/05/17 22:00 EDT  -99.99 -99.99    5   96    7 -99.9 -99.9 -999.9 -9.9 -9.999 -99.9 -99.99 -9.99
2019/05/17 22:06 EDT  -99.99 -99.99    5  113    7 -99.9 -99.9 -999.9 -9.9 -9.999 -99.9 -99.99 -9.99
2019/05/17 22:12 EDT  -99.99 -99.99    7  122   10 -99.9 -99.9 -999.9 -9.9 -9.999 -99.9 -99.99 -9.99
2019/05/17 22:18 EDT  -99.99 -99.99    6   97    8 -99.9 -99.9 -999.9 -9.9 -9.999 -99.9 -99.99 -9.99
2019/05/17 22:24 EDT  -99.99 -99.99    6  122    8 -99.9 -99.9 -999.9 -9.9 -9.999 -99.9 -99.99 -9.99
2019/05/17 22:30 EDT  -99.99 -99.99    6  109    8 -99.9 -99.9 -999.9 -9.9 -9.999 -99.9 -99.99 -9.99
2019/05/17 22:36 EDT  -99.99 -99.99    6  115    8 -99.9 -99.9 -999.9 -9.9 -9.999 -99.9 -99.99 -9.99
2019/05/17 22:42 EDT  -99.99 -99.99    5  111    8 -99.9 -99.9 -999.9 -9.9 -9.999 -99.9 -99.99 -9.99
2019/05/17 22:48 EDT  -99.99 -99.99    7  116   10 -99.9 -99.9 -999.9 -9.9 -9.999 -99.9 -99.99 -9.99
2019/05/17 22:54 EDT  -99.99 -99.99    8  110   12 -99.9 -99.9 -999.9 -9.9 -9.999 -99.9 -99.99 -9.99
2019/05/17 23:00 EDT  -99.99 -99.99    8  114   11 -99.9 -99.9 -999.9 -9.9 -9.999 -99.9 -99.99 -9.99
2019/05/17 23:06 EDT  -99.99 -99.99    7  110   11 -99.9 -99.9 -999.9 -9.9 -9.999 -99.9 -99.99 -9.99
2019/05/17 23:12 EDT  -99.99 -99.99    6   88    8 -99.9 -99.9 -999.9 -9.9 -9.999 -99.9 -99.99 -9.99
2019/05/17 23:18 EDT  -99.99 -99.99    5   94    7 -99.9 -99.9 -999.9 -9.9 -9.999 -99.9 -99.99 -9.99
2019/05/17 23:24 EDT  -99.99 -99.99    7  107   10 -99.9 -99.9 -999.9 -9.9 -9.999 -99.9 -99.99 -9.99
2019/05/17 23:30 EDT  -99.99 -99.99    7  107    9 -99.9 -99.9 -999.9 -9.9 -9.999 -99.9 -99.99 -9.99
2019/05/17 23:36 EDT  -99.99 -99.99    6  119    8 -99.9 -99.9 -999.9 -9.9 -9.999 -99.9 -99.99 -9.99
2019/05/17 23:42 EDT  -99.99 -99.99    4  105    9 -99.9 -99.9 -999.9 -9.9 -9.999 -99.9 -99.99 -9.99
2019/05/17 23:48 EDT  -99.99 -99.99    5   94    7 -99.9 -99.9 -999.9 -9.9 -9.999 -99.9 -99.99 -9.99
2019/05/17 23:54 EDT  -99.99 -99.99    4  105    6 -99.9 -99.9 -999.9 -9.9 -9.999 -99.9 -99.99 -9.99
2019/05/18 00:00 EDT  -99.99 -99.99    6   90    8 -99.9 -99.9 -999.9 -9.9 -9.999 -99.9 -99.99 -9.99
2019/05/18 00:06 EDT  -99.99 -99.99    5  104    8 -99.9 -99.9 -999.9 -9.9 -9.999 -99.9 -99.99 -9.99
2019/05/18 00:12 EDT  -99.99 -99.99    5   98    8 -99.9 -99.9 -999.9 -9.9 -9.999 -99.9 -99.99 -9.99
2019/05/18 00:18 EDT  -99.99 -99.99    6  113   10 -99.9 -99.9 -999.9 -9.9 -9.999 -99.9 -99.99 -9.99
2019/05/18 00:24 EDT  -99.99 -99.99    6  118    8 -99.9 -99.9 -999.9 -9.9 -9.999 -99.9 -99.99 -9.99
2019/05/18 00:30 EDT  -99.99 -99.99    6  111    7 -99.9 -99.9 -999.9 -9.9 -9.999 -99.9 -99.99 -9.99
2019/05/18 00:36 EDT  -99.99 -99.99    5  110    9 -99.9 -99.9 -999.9 -9.9 -9.999 -99.9 -99.99 -9.99
2019/05/18 00:42 EDT  -99.99 -99.99    5  107    7 -99.9 -99.9 -999.9 -9.9 -9.999 -99.9 -99.99 -9.99
2019/05/18 00:48 EDT  -99.99 -99.99    7  103    9 -99.9 -99.9 -999.9 -9.9 -9.999 -99.9 -99.99 -9.99
2019/05/18 00:54 EDT  -99.99 -99.99    7  105    8 -99.9 -99.9 -999.9 -9.9 -9.999 -99.9 -99.99 -9.99
2019/05/18 01:00 EDT  -99.99 -99.99    4  136    7 -99.9 -99.9 -999.9 -9.9 -9.999 -99.9 -99.99 -9.99
2019/05/18 01:06 EDT  -99.99 -99.99    5  122    9 -99.9 -99.9 -999.9 -9.9 -9.999 -99.9 -99.99 -9.99
2019/05/18 01:12 EDT  -99.99 -99.99    7  120    9 -99.9 -99.9 -999.9 -9.9 -9.999 -99.9 -99.99 -9.99
2019/05/18 01:18 EDT  -99.99 -99.99    6  117   10 -99.9 -99.9 -999.9 -9.9 -9.999 -99.9 -99.99 -9.99
2019/05/18 01:24 EDT  -99.99 -99.99    5  114    7 -99.9 -99.9 -999.9 -9.9 -9.999 -99.9 -99.99 -9.99
2019/05/18 01:30 EDT  -99.99 -99.99    6  134    9 -99.9 -99.9 -999.9 -9.9 -9.999 -99.9 -99.99 -9.99
2019/05/18 01:36 EDT  -99.99 -99.99    7  108    9 -99.9 -99.9 -999.9 -9.9 -9.999 -99.9 -99.99 -9.99
2019/05/18 01:42 EDT  -99.99 -99.99    5  117    6 -99.9 -99.9 -999.9 -9.9 -9.999 -99.9 -99.99 -9.99
2019/05/18 01:48 EDT  -99.99 -99.99    6  106    7 -99.9 -99.9 -999.9 -9.9 -9.999 -99.9 -99.99 -9.99
2019/05/18 01:54 EDT  -99.99 -99.99    3   81    5 -99.9 -99.9 -999.9 -9.9 -9.999 -99.9 -99.99 -9.99
2019/05/18 02:00 EDT  -99.99 -99.99    5   89    7 -99.9 -99.9 -999.9 -9.9 -9.999 -99.9 -99.99 -9.99
2019/05/18 02:06 EDT  -99.99 -99.99    4   97    6 -99.9 -99.9 -999.9 -9.9 -9.999 -99.9 -99.99 -9.99
2019/05/18 02:12 EDT  -99.99 -99.99    5  107    7 -99.9 -99.9 -999.9 -9.9 -9.999 -99.9 -99.99 -9.99
2019/05/18 02:18 EDT  -99.99 -99.99    5  105    7 -99.9 -99.9 -999.9 -9.9 -9.999 -99.9 -99.99 -9.99
2019/05/18 02:24 EDT  -99.99 -99.99    5  111    7 -99.9 -99.9 -999.9 -9.9 -9.999 -99.9 -99.99 -9.99
2019/05/18 02:30 EDT  -99.99 -99.99    4  115    6 -99.9 -99.9 -999.9 -9.9 -9.999 -99.9 -99.99 -9.99
2019/05/18 02:36 EDT  -99.99 -99.99    5  102    6 -99.9 -99.9 -999.9 -9.9 -9.999 -99.9 -99.99 -9.99
2019/05/18 02:42 EDT  -99.99 -99.99    4   99    7 -99.9 -99.9 -999.9 -9.9 -9.999 -99.9 -99.99 -9.99
2019/05/18 02:48 EDT  -99.99 -99.99    4   67    6 -99.9 -99.9 -999.9 -9.9 -9.999 -99.9 -99.99 -9.99
2019/05/18 02:54 EDT  -99.99 -99.99    4   77    6 -99.9 -99.9 -999.9 -9.9 -9.999 -99.9 -99.99 -9.99
2019/05/18 03:00 EDT  -99.99 -99.99    4   66    6 -99.9 -99.9 -999.9 -9.9 -9.999 -99.9 -99.99 -9.99
2019/05/18 03:06 EDT  -99.99 -99.99    3   64    5 -99.9 -99.9 -999.9 -9.9 -9.999 -99.9 -99.99 -9.99
2019/05/18 03:12 EDT  -99.99 -99.99    3   68    5 -99.9 -99.9 -999.9 -9.9 -9.999 -99.9 -99.99 -9.99
2019/05/18 03:18 EDT  -99.99 -99.99    5   92    6 -99.9 -99.9 -999.9 -9.9 -9.999 -99.9 -99.99 -9.99
2019/05/18 03:24 EDT  -99.99 -99.99    4  113    5 -99.9 -99.9 -999.9 -9.9 -9.999 -99.9 -99.99 -9.99
2019/05/18 03:30 EDT  -99.99 -99.99    3   82    4 -99.9 -99.9 -999.9 -9.9 -9.999 -99.9 -99.99 -9.99
2019/05/18 03:36 EDT  -99.99 -99.99    1   90    2 -99.9 -99.9 -999.9 -9.9 -9.999 -99.9 -99.99 -9.99
2019/05/18 03:42 EDT  -99.99 -99.99    4   87    5 -99.9 -99.9 -999.9 -9.9 -9.999 -99.9 -99.99 -9.99
2019/05/18 03:48 EDT  -99.99 -99.99    3   95    5 -99.9 -99.9 -999.9 -9.9 -9.999 -99.9 -99.99 -9.99
2019/05/18 03:54 EDT  -99.99 -99.99    4   77    5 -99.9 -99.9 -999.9 -9.9 -9.999 -99.9 -99.99 -9.99
2019/05/18 04:00 EDT  -99.99 -99.99    2   73    4 -99.9 -99.9 -999.9 -9.9 -9.999 -99.9 -99.99 -9.99
2019/05/18 04:06 EDT  -99.99 -99.99    5  102    6 -99.9 -99.9 -999.9 -9.9 -9.999 -99.9 -99.99 -9.99
2019/05/18 04:12 EDT  -99.99 -99.99    4  114    5 -99.9 -99.9 -999.9 -9.9 -9.999 -99.9 -99.99 -9.99
2019/05/18 04:18 EDT  -99.99 -99.99    4  106    6 -99.9 -99.9 -999.9 -9.9 -9.999 -99.9 -99.99 -9.99
2019/05/18 04:24 EDT  -99.99 -99.99    4  103    5 -99.9 -99.9 -999.9 -9.9 -9.999 -99.9 -99.99 -9.99
2019/05/18 04:30 EDT  -99.99 -99.99    5  104    7 -99.9 -99.9 -999.9 -9.9 -9.999 -99.9 -99.99 -9.99
2019/05/18 04:36 EDT  -99.99 -99.99    3  109    5 -99.9 -99.9 -999.9 -9.9 -9.999 -99.9 -99.99 -9.99
2019/05/18 04:42 EDT  -99.99 -99.99    4   87    6 -99.9 -99.9 -999.9 -9.9 -9.999 -99.9 -99.99 -9.99
2019/05/18 04:48 EDT  -99.99 -99.99    4   86    5 -99.9 -99.9 -999.9 -9.9 -9.999 -99.9 -99.99 -9.99
2019/05/18 04:54 EDT  -99.99 -99.99    4   80    6 -99.9 -99.9 -999.9 -9.9 -9.999 -99.9 -99.99 -9.99
2019/05/18 05:00 EDT  -99.99 -99.99    4   86    6 -99.9 -99.9 -999.9 -9.9 -9.999 -99.9 -99.99 -9.99
2019/05/18 05:06 EDT  -99.99 -99.99    4   87    6 -99.9 -99.9 -999.9 -9.9 -9.999 -99.9 -99.99 -9.99
2019/05/18 05:12 EDT  -99.99 -99.99    3   85    5 -99.9 -99.9 -999.9 -9.9 -9.999 -99.9 -99.99 -9.99
2019/05/18 05:18 EDT  -99.99 -99.99    4   91    6 -99.9 -99.9 -999.9 -9.9 -9.999 -99.9 -99.99 -9.99
2019/05/18 05:24 EDT  -99.99 -99.99    3   90    6 -99.9 -99.9 -999.9 -9.9 -9.999 -99.9 -99.99 -9.99
2019/05/18 05:30 EDT  -99.99 -99.99    3   72    4 -99.9 -99.9 -999.9 -9.9 -9.999 -99.9 -99.99 -9.99
2019/05/18 05:36 EDT  -99.99 -99.99    4   78    6 -99.9 -99.9 -999.9 -9.9 -9.999 -99.9 -99.99 -9.99
2019/05/18 05:42 EDT  -99.99 -99.99    4   77    5 -99.9 -99.9 -999.9 -9.9 -9.999 -99.9 -99.99 -9.99
2019/05/18 05:48 EDT  -99.99 -99.99    3   79    5 -99.9 -99.9 -999.9 -9.9 -9.999 -99.9 -99.99 -9.99
2019/05/18 05:54 EDT  -99.99 -99.99    5   86    5 -99.9 -99.9 -999.9 -9.9 -9.999 -99.9 -99.99 -9.99
2019/05/18 06:00 EDT  -99.99 -99.99    4  109    6 -99.9 -99.9 -999.9 -9.9 -9.999 -99.9 -99.99 -9.99
2019/05/18 06:06 EDT  -99.99 -99.99    3   83    5 -99.9 -99.9 -999.9 -9.9 -9.999 -99.9 -99.99 -9.99
2019/05/18 06:12 EDT  -99.99 -99.99    2   80    3 -99.9 -99.9 -999.9 -9.9 -9.999 -99.9 -99.99 -9.99
2019/05/18 06:18 EDT  -99.99 -99.99    3   90    5 -99.9 -99.9 -999.9 -9.9 -9.999 -99.9 -99.99 -9.99
2019/05/18 06:24 EDT  -99.99 -99.99    4   79    5 -99.9 -99.9 -999.9 -9.9 -9.999 -99.9 -99.99 -9.99
2019/05/18 06:30 EDT  -99.99 -99.99    2   91    3 -99.9 -99.9 -999.9 -9.9 -9.999 -99.9 -99.99 -9.99
2019/05/18 06:36 EDT  -99.99 -99.99    2   92    3 -99.9 -99.9 -999.9 -9.9 -9.999 -99.9 -99.99 -9.99
2019/05/18 06:42 EDT  -99.99 -99.99    2   85    4 -99.9 -99.9 -999.9 -9.9 -9.999 -99.9 -99.99 -9.99
2019/05/18 06:48 EDT  -99.99 -99.99    3   86    4 -99.9 -99.9 -999.9 -9.9 -9.999 -99.9 -99.99 -9.99
2019/05/18 06:54 EDT  -99.99 -99.99    3   84    5 -99.9 -99.9 -999.9 -9.9 -9.999 -99.9 -99.99 -9.99
2019/05/18 07:00 EDT  -99.99 -99.99    4   91    6 -99.9 -99.9 -999.9 -9.9 -9.999 -99.9 -99.99 -9.99
2019/05/18 07:06 EDT  -99.99 -99.99    4  126    6 -99.9 -99.9 -999.9 -9.9 -9.999 -99.9 -99.99 -9.99
2019/05/18 07:12 EDT  -99.99 -99.99    4  118    5 -99.9 -99.9 -999.9 -9.9 -9.999 -99.9 -99.99 -9.99
2019/05/18 07:18 EDT  -99.99 -99.99    3  128    5 -99.9 -99.9 -999.9 -9.9 -9.999 -99.9 -99.99 -9.99
2019/05/18 07:24 EDT  -99.99 -99.99    2  130    4 -99.9 -99.9 -999.9 -9.9 -9.999 -99.9 -99.99 -9.99
2019/05/18 07:30 EDT  -99.99 -99.99    3  117    4 -99.9 -99.9 -999.9 -9.9 -9.999 -99.9 -99.99 -9.99
2019/05/18 07:36 EDT  -99.99 -99.99    4  107    5 -99.9 -99.9 -999.9 -9.9 -9.999 -99.9 -99.99 -9.99
2019/05/18 07:42 EDT  -99.99 -99.99    3   81    5 -99.9 -99.9 -999.9 -9.9 -9.999 -99.9 -99.99 -9.99
2019/05/18 07:48 EDT  -99.99 -99.99    3   71    5 -99.9 -99.9 -999.9 -9.9 -9.999 -99.9 -99.99 -9.99
2019/05/18 07:54 EDT  -99.99 -99.99    4  108    7 -99.9 -99.9 -999.9 -9.9 -9.999 -99.9 -99.99 -9.99
2019/05/18 08:00 EDT  -99.99 -99.99    3   75    6 -99.9 -99.9 -999.9 -9.9 -9.999 -99.9 -99.99 -9.99
2019/05/18 08:06 EDT  -99.99 -99.99    3   65    4 -99.9 -99.9 -999.9 -9.9 -9.999 -99.9 -99.99 -9.99
2019/05/18 08:12 EDT  -99.99 -99.99    2   97    4 -99.9 -99.9 -999.9 -9.9 -9.999 -99.9 -99.99 -9.99
2019/05/18 08:18 EDT  -99.99 -99.99    3   99    5 -99.9 -99.9 -999.9 -9.9 -9.999 -99.9 -99.99 -9.99
2019/05/18 08:24 EDT  -99.99 -99.99    3   75    4 -99.9 -99.9 -999.9 -9.9 -9.999 -99.9 -99.99 -9.99
2019/05/18 08:30 EDT  -99.99 -99.99    2   81    4 -99.9 -99.9 -999.9 -9.9 -9.999 -99.9 -99.99 -9.99
2019/05/18 08:36 EDT  -99.99 -99.99    3  102    4 -99.9 -99.9 -999.9 -9.9 -9.999 -99.9 -99.99 -9.99
2019/05/18 08:42 EDT  -99.99 -99.99    3  105    5 -99.9 -99.9 -999.9 -9.9 -9.999 -99.9 -99.99 -9.99
2019/05/18 08:48 EDT  -99.99 -99.99    2   87    4 -99.9 -99.9 -999.9 -9.9 -9.999 -99.9 -99.99 -9.99
2019/05/18 08:54 EDT  -99.99 -99.99    4   78    6 -99.9 -99.9 -999.9 -9.9 -9.999 -99.9 -99.99 -9.99
2019/05/18 09:00 EDT  -99.99 -99.99    4   86    6 -99.9 -99.9 -999.9 -9.9 -9.999 -99.9 -99.99 -9.99
2019/05/18 09:06 EDT  -99.99 -99.99    4  102    5 -99.9 -99.9 -999.9 -9.9 -9.999 -99.9 -99.99 -9.99
2019/05/18 09:12 EDT  -99.99 -99.99    4   72    6 -99.9 -99.9 -999.9 -9.9 -9.999 -99.9 -99.99 -9.99
2019/05/18 09:18 EDT  -99.99 -99.99    2   95    4 -99.9 -99.9 -999.9 -9.9 -9.999 -99.9 -99.99 -9.99
2019/05/18 09:24 EDT  -99.99 -99.99    1   65    3 -99.9 -99.9 -999.9 -9.9 -9.999 -99.9 -99.99 -9.99
2019/05/18 09:30 EDT  -99.99 -99.99    4   71    6 -99.9 -99.9 -999.9 -9.9 -9.999 -99.9 -99.99 -9.99
2019/05/18 09:36 EDT  -99.99 -99.99    3   61    4 -99.9 -99.9 -999.9 -9.9 -9.999 -99.9 -99.99 -9.99
2019/05/18 09:42 EDT  -99.99 -99.99    4   64    6 -99.9 -99.9 -999.9 -9.9 -9.999 -99.9 -99.99 -9.99
2019/05/18 09:48 EDT  -99.99 -99.99    3  105    5 -99.9 -99.9 -999.9 -9.9 -9.999 -99.9 -99.99 -9.99
2019/05/18 09:54 EDT  -99.99 -99.99    2  108    4 -99.9 -99.9 -999.9 -9.9 -9.999 -99.9 -99.99 -9.99
2019/05/18 10:00 EDT  -99.99 -99.99    2   98    5 -99.9 -99.9 -999.9 -9.9 -9.999 -99.9 -99.99 -9.99
2019/05/18 10:06 EDT  -99.99 -99.99    4  105    6 -99.9 -99.9 -999.9 -9.9 -9.999 -99.9 -99.99 -9.99
2019/05/18 10:12 EDT  -99.99 -99.99    4   91    5 -99.9 -99.9 -999.9 -9.9 -9.999 -99.9 -99.99 -9.99
2019/05/18 10:18 EDT  -99.99 -99.99    2   99    4 -99.9 -99.9 -999.9 -9.9 -9.999 -99.9 -99.99 -9.99
2019/05/18 10:24 EDT  -99.99 -99.99    4  115    5 -99.9 -99.9 -999.9 -9.9 -9.999 -99.9 -99.99 -9.99
2019/05/18 10:30 EDT  -99.99 -99.99    2  101    5 -99.9 -99.9 -999.9 -9.9 -9.999 -99.9 -99.99 -9.99
2019/05/18 10:36 EDT  -99.99 -99.99    3   91    4 -99.9 -99.9 -999.9 -9.9 -9.999 -99.9 -99.99 -9.99
2019/05/18 10:42 EDT  -99.99 -99.99    2   82    5 -99.9 -99.9 -999.9 -9.9 -9.999 -99.9 -99.99 -9.99
2019/05/18 10:48 EDT  -99.99 -99.99    3  134    6 -99.9 -99.9 -999.9 -9.9 -9.999 -99.9 -99.99 -9.99
2019/05/18 10:54 EDT  -99.99 -99.99    3  102    5 -99.9 -99.9 -999.9 -9.9 -9.999 -99.9 -99.99 -9.99
2019/05/18 11:00 EDT  -99.99 -99.99    4  104    6 -99.9 -99.9 -999.9 -9.9 -9.999 -99.9 -99.99 -9.99
2019/05/18 11:06 EDT  -99.99 -99.99    4  106    6 -99.9 -99.9 -999.9 -9.9 -9.999 -99.9 -99.99 -9.99
2019/05/18 11:12 EDT  -99.99 -99.99    4   97    6 -99.9 -99.9 -999.9 -9.9 -9.999 -99.9 -99.99 -9.99
2019/05/18 11:18 EDT  -99.99 -99.99    4  107    8 -99.9 -99.9 -999.9 -9.9 -9.999 -99.9 -99.99 -9.99
2019/05/18 11:24 EDT  -99.99 -99.99    5   78    7 -99.9 -99.9 -999.9 -9.9 -9.999 -99.9 -99.99 -9.99
2019/05/18 11:30 EDT  -99.99 -99.99    7   79   11 -99.9 -99.9 -999.9 -9.9 -9.999 -99.9 -99.99 -9.99
2019/05/18 11:36 EDT  -99.99 -99.99    3   66    5 -99.9 -99.9 -999.9 -9.9 -9.999 -99.9 -99.99 -9.99
2019/05/18 11:42 EDT  -99.99 -99.99    4   60    7 -99.9 -99.9 -999.9 -9.9 -9.999 -99.9 -99.99 -9.99
2019/05/18 11:48 EDT  -99.99 -99.99    5  111    7 -99.9 -99.9 -999.9 -9.9 -9.999 -99.9 -99.99 -9.99
2019/05/18 11:54 EDT  -99.99 -99.99    3   65    5 -99.9 -99.9 -999.9 -9.9 -9.999 -99.9 -99.99 -9.99
2019/05/18 12:00 EDT  -99.99 -99.99    5   33    9 -99.9 -99.9 -999.9 -9.9 -9.999 -99.9 -99.99 -9.99
2019/05/18 12:06 EDT  -99.99 -99.99    4   64    7 -99.9 -99.9 -999.9 -9.9 -9.999 -99.9 -99.99 -9.99
2019/05/18 12:12 EDT  -99.99 -99.99    5   95    7 -99.9 -99.9 -999.9 -9.9 -9.999 -99.9 -99.99 -9.99
2019/05/18 12:18 EDT  -99.99 -99.99    4  116    7 -99.9 -99.9 -999.9 -9.9 -9.999 -99.9 -99.99 -9.99
2019/05/18 12:24 EDT  -99.99 -99.99    6   90    8 -99.9 -99.9 -999.9 -9.9 -9.999 -99.9 -99.99 -9.99
2019/05/18 12:30 EDT  -99.99 -99.99    6  100    9 -99.9 -99.9 -999.9 -9.9 -9.999 -99.9 -99.99 -9.99
2019/05/18 12:36 EDT  -99.99 -99.99    7   73   11 -99.9 -99.9 -999.9 -9.9 -9.999 -99.9 -99.99 -9.99
2019/05/18 12:42 EDT  -99.99 -99.99    6   91    8 -99.9 -99.9 -999.9 -9.9 -9.999 -99.9 -99.99 -9.99
2019/05/18 12:48 EDT  -99.99 -99.99    6   85    9 -99.9 -99.9 -999.9 -9.9 -9.999 -99.9 -99.99 -9.99
2019/05/18 12:54 EDT  -99.99 -99.99    5   49    8 -99.9 -99.9 -999.9 -9.9 -9.999 -99.9 -99.99 -9.99
2019/05/18 13:00 EDT  -99.99 -99.99    5  105    8 -99.9 -99.9 -999.9 -9.9 -9.999 -99.9 -99.99 -9.99
2019/05/18 13:06 EDT  -99.99 -99.99    5   60    8 -99.9 -99.9 -999.9 -9.9 -9.999 -99.9 -99.99 -9.99
2019/05/18 13:12 EDT  -99.99 -99.99    7   68   12 -99.9 -99.9 -999.9 -9.9 -9.999 -99.9 -99.99 -9.99
2019/05/18 13:18 EDT  -99.99 -99.99    7   97   10 -99.9 -99.9 -999.9 -9.9 -9.999 -99.9 -99.99 -9.99
2019/05/18 13:24 EDT  -99.99 -99.99    7   79   11 -99.9 -99.9 -999.9 -9.9 -9.999 -99.9 -99.99 -9.99
2019/05/18 13:30 EDT  -99.99 -99.99    6   65   10 -99.9 -99.9 -999.9 -9.9 -9.999 -99.9 -99.99 -9.99
2019/05/18 13:36 EDT  -99.99 -99.99    6   35    8 -99.9 -99.9 -999.9 -9.9 -9.999 -99.9 -99.99 -9.99
2019/05/18 13:42 EDT  -99.99 -99.99    5   16    8 -99.9 -99.9 -999.9 -9.9 -9.999 -99.9 -99.99 -9.99
2019/05/18 13:48 EDT  -99.99 -99.99    5   47    7 -99.9 -99.9 -999.9 -9.9 -9.999 -99.9 -99.99 -9.99
2019/05/18 13:54 EDT  -99.99 -99.99   10   18   12 -99.9 -99.9 -999.9 -9.9 -9.999 -99.9 -99.99 -9.99
2019/05/18 14:00 EDT  -99.99 -99.99    7   56   10 -99.9 -99.9 -999.9 -9.9 -9.999 -99.9 -99.99 -9.99
2019/05/18 14:06 EDT  -99.99 -99.99    3   22    6 -99.9 -99.9 -999.9 -9.9 -9.999 -99.9 -99.99 -9.99
2019/05/18 14:12 EDT  -99.99 -99.99    9   31   12 -99.9 -99.9 -999.9 -9.9 -9.999 -99.9 -99.99 -9.99
2019/05/18 14:18 EDT  -99.99 -99.99    5   40   10 -99.9 -99.9 -999.9 -9.9 -9.999 -99.9 -99.99 -9.99
2019/05/18 14:24 EDT  -99.99 -99.99    6   88    9 -99.9 -99.9 -999.9 -9.9 -9.999 -99.9 -99.99 -9.99
2019/05/18 14:30 EDT  -99.99 -99.99    4  116    6 -99.9 -99.9 -999.9 -9.9 -9.999 -99.9 -99.99 -9.99
2019/05/18 14:36 EDT  -99.99 -99.99    9   53   15 -99.9 -99.9 -999.9 -9.9 -9.999 -99.9 -99.99 -9.99
2019/05/18 14:42 EDT  -99.99 -99.99    4   52    7 -99.9 -99.9 -999.9 -9.9 -9.999 -99.9 -99.99 -9.99
2019/05/18 14:48 EDT  -99.99 -99.99   10   42   14 -99.9 -99.9 -999.9 -9.9 -9.999 -99.9 -99.99 -9.99
2019/05/18 14:54 EDT  -99.99 -99.99    5   29    8 -99.9 -99.9 -999.9 -9.9 -9.999 -99.9 -99.99 -9.99
2019/05/18 15:00 EDT  -99.99 -99.99    7   49   11 -99.9 -99.9 -999.9 -9.9 -9.999 -99.9 -99.99 -9.99
2019/05/18 15:06 EDT  -99.99 -99.99    5   50   10 -99.9 -99.9 -999.9 -9.9 -9.999 -99.9 -99.99 -9.99
2019/05/18 15:12 EDT  -99.99 -99.99    7   49   10 -99.9 -99.9 -999.9 -9.9 -9.999 -99.9 -99.99 -9.99
2019/05/18 15:18 EDT  -99.99 -99.99    6   40   11 -99.9 -99.9 -999.9 -9.9 -9.999 -99.9 -99.99 -9.99
2019/05/18 15:24 EDT  -99.99 -99.99    7   20    9 -99.9 -99.9 -999.9 -9.9 -9.999 -99.9 -99.99 -9.99
2019/05/18 15:30 EDT  -99.99 -99.99    5   32   11 -99.9 -99.9 -999.9 -9.9 -9.999 -99.9 -99.99 -9.99
2019/05/18 15:36 EDT  -99.99 -99.99    8   39   13 -99.9 -99.9 -999.9 -9.9 -9.999 -99.9 -99.99 -9.99
2019/05/18 15:42 EDT  -99.99 -99.99    5    6    8 -99.9 -99.9 -999.9 -9.9 -9.999 -99.9 -99.99 -9.99
2019/05/18 15:48 EDT  -99.99 -99.99    3  113    7 -99.9 -99.9 -999.9 -9.9 -9.999 -99.9 -99.99 -9.99
2019/05/18 15:54 EDT  -99.99 -99.99    8   61   11 -99.9 -99.9 -999.9 -9.9 -9.999 -99.9 -99.99 -9.99
2019/05/18 16:00 EDT  -99.99 -99.99    6   64    8 -99.9 -99.9 -999.9 -9.9 -9.999 -99.9 -99.99 -9.99
2019/05/18 16:06 EDT  -99.99 -99.99    5   29    7 -99.9 -99.9 -999.9 -9.9 -9.999 -99.9 -99.99 -9.99
2019/05/18 16:12 EDT  -99.99 -99.99    3   87    5 -99.9 -99.9 -999.9 -9.9 -9.999 -99.9 -99.99 -9.99
2019/05/18 16:18 EDT  -99.99 -99.99    7   90    9 -99.9 -99.9 -999.9 -9.9 -9.999 -99.9 -99.99 -9.99
2019/05/18 16:24 EDT  -99.99 -99.99    8   61   11 -99.9 -99.9 -999.9 -9.9 -9.999 -99.9 -99.99 -9.99
2019/05/18 16:30 EDT  -99.99 -99.99    3   61    5 -99.9 -99.9 -999.9 -9.9 -9.999 -99.9 -99.99 -9.99
2019/05/18 16:36 EDT  -99.99 -99.99    4   79    5 -99.9 -99.9 -999.9 -9.9 -9.999 -99.9 -99.99 -9.99
2019/05/18 16:42 EDT  -99.99 -99.99    5   63   10 -99.9 -99.9 -999.9 -9.9 -9.999 -99.9 -99.99 -9.99
2019/05/18 16:48 EDT  -99.99 -99.99    7   50   12 -99.9 -99.9 -999.9 -9.9 -9.999 -99.9 -99.99 -9.99
2019/05/18 16:54 EDT  -99.99 -99.99    5   57    7 -99.9 -99.9 -999.9 -9.9 -9.999 -99.9 -99.99 -9.99
2019/05/18 17:00 EDT  -99.99 -99.99    5   40    9 -99.9 -99.9 -999.9 -9.9 -9.999 -99.9 -99.99 -9.99
2019/05/18 17:06 EDT  -99.99 -99.99    7   53   10 -99.9 -99.9 -999.9 -9.9 -9.999 -99.9 -99.99 -9.99
2019/05/18 17:12 EDT  -99.99 -99.99    6   45    9 -99.9 -99.9 -999.9 -9.9 -9.999 -99.9 -99.99 -9.99
2019/05/18 17:18 EDT  -99.99 -99.99    5   56    8 -99.9 -99.9 -999.9 -9.9 -9.999 -99.9 -99.99 -9.99
2019/05/18 17:24 EDT  -99.99 -99.99    4    1    7 -99.9 -99.9 -999.9 -9.9 -9.999 -99.9 -99.99 -9.99
2019/05/18 17:30 EDT  -99.99 -99.99    5   89    9 -99.9 -99.9 -999.9 -9.9 -9.999 -99.9 -99.99 -9.99
2019/05/18 17:36 EDT  -99.99 -99.99    7   86    9 -99.9 -99.9 -999.9 -9.9 -9.999 -99.9 -99.99 -9.99
2019/05/18 17:42 EDT  -99.99 -99.99    7   85   10 -99.9 -99.9 -999.9 -9.9 -9.999 -99.9 -99.99 -9.99
2019/05/18 17:48 EDT  -99.99 -99.99    7   86    9 -99.9 -99.9 -999.9 -9.9 -9.999 -99.9 -99.99 -9.99
2019/05/18 17:54 EDT  -99.99 -99.99    6   79    9 -99.9 -99.9 -999.9 -9.9 -9.999 -99.9 -99.99 -9.99
2019/05/18 18:00 EDT  -99.99 -99.99    5   69    7 -99.9 -99.9 -999.9 -9.9 -9.999 -99.9 -99.99 -9.99
2019/05/18 18:06 EDT  -99.99 -99.99    7   76    9 -99.9 -99.9 -999.9 -9.9 -9.999 -99.9 -99.99 -9.99
2019/05/18 18:12 EDT  -99.99 -99.99    9   40   13 -99.9 -99.9 -999.9 -9.9 -9.999 -99.9 -99.99 -9.99
2019/05/18 18:18 EDT  -99.99 -99.99    7   57   10 -99.9 -99.9 -999.9 -9.9 -9.999 -99.9 -99.99 -9.99
2019/05/18 18:24 EDT  -99.99 -99.99    7   37    9 -99.9 -99.9 -999.9 -9.9 -9.999 -99.9 -99.99 -9.99
2019/05/18 18:30 EDT  -99.99 -99.99    6   84    9 -99.9 -99.9 -999.9 -9.9 -9.999 -99.9 -99.99 -9.99
2019/05/18 18:36 EDT  -99.99 -99.99    6   67    8 -99.9 -99.9 -999.9 -9.9 -9.999 -99.9 -99.99 -9.99
2019/05/18 18:42 EDT  -99.99 -99.99    4   61    6 -99.9 -99.9 -999.9 -9.9 -9.999 -99.9 -99.99 -9.99
2019/05/18 18:48 EDT  -99.99 -99.99    5   98    7 -99.9 -99.9 -999.9 -9.9 -9.999 -99.9 -99.99 -9.99
2019/05/18 18:54 EDT  -99.99 -99.99    5   58    8 -99.9 -99.9 -999.9 -9.9 -9.999 -99.9 -99.99 -9.99
2019/05/18 19:00 EDT  -99.99 -99.99    9   55   13 -99.9 -99.9 -999.9 -9.9 -9.999 -99.9 -99.99 -9.99
2019/05/18 19:06 EDT  -99.99 -99.99    8   50   11 -99.9 -99.9 -999.9 -9.9 -9.999 -99.9 -99.99 -9.99
2019/05/18 19:12 EDT  -99.99 -99.99    6   51    9 -99.9 -99.9 -999.9 -9.9 -9.999 -99.9 -99.99 -9.99
2019/05/18 19:18 EDT  -99.99 -99.99    7   55   11 -99.9 -99.9 -999.9 -9.9 -9.999 -99.9 -99.99 -9.99
2019/05/18 19:24 EDT  -99.99 -99.99    7   60    9 -99.9 -99.9 -999.9 -9.9 -9.999 -99.9 -99.99 -9.99
2019/05/18 19:30 EDT  -99.99 -99.99    5   55    8 -99.9 -99.9 -999.9 -9.9 -9.999 -99.9 -99.99 -9.99
2019/05/18 19:36 EDT  -99.99 -99.99    5   71    8 -99.9 -99.9 -999.9 -9.9 -9.999 -99.9 -99.99 -9.99
2019/05/18 19:42 EDT  -99.99 -99.99    5   69    8 -99.9 -99.9 -999.9 -9.9 -9.999 -99.9 -99.99 -9.99
2019/05/18 19:48 EDT  -99.99 -99.99    6   63    7 -99.9 -99.9 -999.9 -9.9 -9.999 -99.9 -99.99 -9.99
2019/05/18 19:54 EDT  -99.99 -99.99    5   59    7 -99.9 -99.9 -999.9 -9.9 -9.999 -99.9 -99.99 -9.99
2019/05/18 20:00 EDT  -99.99 -99.99    6   56    8 -99.9 -99.9 -999.9 -9.9 -9.999 -99.9 -99.99 -9.99
2019/05/18 20:06 EDT  -99.99 -99.99    6   59    8 -99.9 -99.9 -999.9 -9.9 -9.999 -99.9 -99.99 -9.99
2019/05/18 20:12 EDT  -99.99 -99.99    5   50    7 -99.9 -99.9 -999.9 -9.9 -9.999 -99.9 -99.99 -9.99
2019/05/18 20:18 EDT  -99.99 -99.99    5   47    9 -99.9 -99.9 -999.9 -9.9 -9.999 -99.9 -99.99 -9.99
2019/05/18 20:24 EDT  -99.99 -99.99    6   43    8 -99.9 -99.9 -999.9 -9.9 -9.999 -99.9 -99.99 -9.99
2019/05/18 20:30 EDT  -99.99 -99.99    7   49    9 -99.9 -99.9 -999.9 -9.9 -9.999 -99.9 -99.99 -9.99
2019/05/18 20:36 EDT  -99.99 -99.99    5   54    7 -99.9 -99.9 -999.9 -9.9 -9.999 -99.9 -99.99 -9.99
2019/05/18 20:42 EDT  -99.99 -99.99    5   51    7 -99.9 -99.9 -999.9 -9.9 -9.999 -99.9 -99.99 -9.99
2019/05/18 20:48 EDT  -99.99 -99.99    3   57    6 -99.9 -99.9 -999.9 -9.9 -9.999 -99.9 -99.99 -9.99
2019/05/18 20:54 EDT  -99.99 -99.99    5   50    8 -99.9 -99.9 -999.9 -9.9 -9.999 -99.9 -99.99 -9.99
2019/05/18 21:00 EDT  -99.99 -99.99    5   51    7 -99.9 -99.9 -999.9 -9.9 -9.999 -99.9 -99.99 -9.99
2019/05/18 21:06 EDT  -99.99 -99.99    5   46    7 -99.9 -99.9 -999.9 -9.9 -9.999 -99.9 -99.99 -9.99
2019/05/18 21:12 EDT  -99.99 -99.99    5   47    6 -99.9 -99.9 -999.9 -9.9 -9.999 -99.9 -99.99 -9.99
2019/05/18 21:18 EDT  -99.99 -99.99    5   42    6 -99.9 -99.9 -999.9 -9.9 -9.999 -99.9 -99.99 -9.99
2019/05/18 21:24 EDT  -99.99 -99.99    4   52    7 -99.9 -99.9 -999.9 -9.9 -9.999 -99.9 -99.99 -9.99
2019/05/18 21:30 EDT  -99.99 -99.99    4   52    5 -99.9 -99.9 -999.9 -9.9 -9.999 -99.9 -99.99 -9.99
2019/05/18 21:36 EDT  -99.99 -99.99    5   60    6 -99.9 -99.9 -999.9 -9.9 -9.999 -99.9 -99.99 -9.99
2019/05/18 21:42 EDT  -99.99 -99.99    5   53    7 -99.9 -99.9 -999.9 -9.9 -9.999 -99.9 -99.99 -9.99
2019/05/18 21:48 EDT  -99.99 -99.99    5   51    7 -99.9 -99.9 -999.9 -9.9 -9.999 -99.9 -99.99 -9.99
2019/05/18 21:54 EDT  -99.99 -99.99    6   54    8 -99.9 -99.9 -999.9 -9.9 -9.999 -99.9 -99.99 -9.99
2019/05/18 22:00 EDT  -99.99 -99.99    5   60    7 -99.9 -99.9 -999.9 -9.9 -9.999 -99.9 -99.99 -9.99
2019/05/18 22:06 EDT  -99.99 -99.99    5   75    9 -99.9 -99.9 -999.9 -9.9 -9.999 -99.9 -99.99 -9.99
2019/05/18 22:12 EDT  -99.99 -99.99    7   72   11 -99.9 -99.9 -999.9 -9.9 -9.999 -99.9 -99.99 -9.99
2019/05/18 22:18 EDT  -99.99 -99.99    9   83   12 -99.9 -99.9 -999.9 -9.9 -9.999 -99.9 -99.99 -9.99
2019/05/18 22:24 EDT  -99.99 -99.99    9   84   14 -99.9 -99.9 -999.9 -9.9 -9.999 -99.9 -99.99 -9.99
2019/05/18 22:30 EDT  -99.99 -99.99    8   86   13 -99.9 -99.9 -999.9 -9.9 -9.999 -99.9 -99.99 -9.99
2019/05/18 22:36 EDT  -99.99 -99.99    7   81   10 -99.9 -99.9 -999.9 -9.9 -9.999 -99.9 -99.99 -9.99
2019/05/18 22:42 EDT  -99.99 -99.99    7   84   10 -99.9 -99.9 -999.9 -9.9 -9.999 -99.9 -99.99 -9.99
2019/05/18 22:48 EDT  -99.99 -99.99   11   86   13 -99.9 -99.9 -999.9 -9.9 -9.999 -99.9 -99.99 -9.99
2019/05/18 22:54 EDT  -99.99 -99.99    8   82   12 -99.9 -99.9 -999.9 -9.9 -9.999 -99.9 -99.99 -9.99
2019/05/18 23:00 EDT  -99.99 -99.99    8   78   14 -99.9 -99.9 -999.9 -9.9 -9.999 -99.9 -99.99 -9.99
2019/05/18 23:06 EDT  -99.99 -99.99    9   83   13 -99.9 -99.9 -999.9 -9.9 -9.999 -99.9 -99.99 -9.99
2019/05/18 23:12 EDT  -99.99 -99.99    7   85   11 -99.9 -99.9 -999.9 -9.9 -9.999 -99.9 -99.99 -9.99
2019/05/18 23:18 EDT  -99.99 -99.99    8   86   10 -99.9 -99.9 -999.9 -9.9 -9.999 -99.9 -99.99 -9.99
2019/05/18 23:24 EDT  -99.99 -99.99    8   77   11 -99.9 -99.9 -999.9 -9.9 -9.999 -99.9 -99.99 -9.99
2019/05/18 23:30 EDT  -99.99 -99.99    8   91   11 -99.9 -99.9 -999.9 -9.9 -9.999 -99.9 -99.99 -9.99
2019/05/18 23:36 EDT  -99.99 -99.99    6   99   10 -99.9 -99.9 -999.9 -9.9 -9.999 -99.9 -99.99 -9.99
2019/05/18 23:42 EDT  -99.99 -99.99    6   91   10 -99.9 -99.9 -999.9 -9.9 -9.999 -99.9 -99.99 -9.99
2019/05/18 23:48 EDT  -99.99 -99.99    5  116   10 -99.9 -99.9 -999.9 -9.9 -9.999 -99.9 -99.99 -9.99
2019/05/18 23:54 EDT  -99.99 -99.99    5  118    9 -99.9 -99.9 -999.9 -9.9 -9.999 -99.9 -99.99 -9.99
2019/05/19 00:00 EDT  -99.99 -99.99    7  113   10 -99.9 -99.9 -999.9 -9.9 -9.999 -99.9 -99.99 -9.99
2019/05/19 00:06 EDT  -99.99 -99.99    6  108   11 -99.9 -99.9 -999.9 -9.9 -9.999 -99.9 -99.99 -9.99
2019/05/19 00:12 EDT  -99.99 -99.99    7  108   10 -99.9 -99.9 -999.9 -9.9 -9.999 -99.9 -99.99 -9.99
2019/05/19 00:18 EDT  -99.99 -99.99    7  118    9 -99.9 -99.9 -999.9 -9.9 -9.999 -99.9 -99.99 -9.99
2019/05/19 00:24 EDT  -99.99 -99.99    5  102    8 -99.9 -99.9 -999.9 -9.9 -9.999 -99.9 -99.99 -9.99
2019/05/19 00:30 EDT  -99.99 -99.99    7  103    9 -99.9 -99.9 -999.9 -9.9 -9.999 -99.9 -99.99 -9.99
2019/05/19 00:36 EDT  -99.99 -99.99    6  101    8 -99.9 -99.9 -999.9 -9.9 -9.999 -99.9 -99.99 -9.99
2019/05/19 00:42 EDT  -99.99 -99.99    7  109   10 -99.9 -99.9 -999.9 -9.9 -9.999 -99.9 -99.99 -9.99
2019/05/19 00:48 EDT  -99.99 -99.99    5  112    7 -99.9 -99.9 -999.9 -9.9 -9.999 -99.9 -99.99 -9.99
2019/05/19 00:54 EDT  -99.99 -99.99    6  108    8 -99.9 -99.9 -999.9 -9.9 -9.999 -99.9 -99.99 -9.99
2019/05/19 01:00 EDT  -99.99 -99.99    8  122   11 -99.9 -99.9 -999.9 -9.9 -9.999 -99.9 -99.99 -9.99
2019/05/19 01:06 EDT  -99.99 -99.99    7  114   11 -99.9 -99.9 -999.9 -9.9 -9.999 -99.9 -99.99 -9.99
2019/05/19 01:12 EDT  -99.99 -99.99    6  112    9 -99.9 -99.9 -999.9 -9.9 -9.999 -99.9 -99.99 -9.99
2019/05/19 01:18 EDT  -99.99 -99.99    5   94    7 -99.9 -99.9 -999.9 -9.9 -9.999 -99.9 -99.99 -9.99
2019/05/19 01:24 EDT  -99.99 -99.99    5  113    8 -99.9 -99.9 -999.9 -9.9 -9.999 -99.9 -99.99 -9.99
2019/05/19 01:30 EDT  -99.99 -99.99    7  120    9 -99.9 -99.9 -999.9 -9.9 -9.999 -99.9 -99.99 -9.99
2019/05/19 01:36 EDT  -99.99 -99.99    8  105   10 -99.9 -99.9 -999.9 -9.9 -9.999 -99.9 -99.99 -9.99
2019/05/19 01:42 EDT  -99.99 -99.99    7  126    9 -99.9 -99.9 -999.9 -9.9 -9.999 -99.9 -99.99 -9.99
2019/05/19 01:48 EDT  -99.99 -99.99    6  113    9 -99.9 -99.9 -999.9 -9.9 -9.999 -99.9 -99.99 -9.99
2019/05/19 01:54 EDT  -99.99 -99.99    7  108    9 -99.9 -99.9 -999.9 -9.9 -9.999 -99.9 -99.99 -9.99
2019/05/19 02:00 EDT  -99.99 -99.99    6  114    9 -99.9 -99.9 -999.9 -9.9 -9.999 -99.9 -99.99 -9.99
2019/05/19 02:06 EDT  -99.99 -99.99    7  127    9 -99.9 -99.9 -999.9 -9.9 -9.999 -99.9 -99.99 -9.99
2019/05/19 02:12 EDT  -99.99 -99.99    7  121    9 -99.9 -99.9 -999.9 -9.9 -9.999 -99.9 -99.99 -9.99
2019/05/19 02:18 EDT  -99.99 -99.99    6  113    8 -99.9 -99.9 -999.9 -9.9 -9.999 -99.9 -99.99 -9.99
2019/05/19 02:24 EDT  -99.99 -99.99    6  112    9 -99.9 -99.9 -999.9 -9.9 -9.999 -99.9 -99.99 -9.99
2019/05/19 02:30 EDT  -99.99 -99.99    5  108    8 -99.9 -99.9 -999.9 -9.9 -9.999 -99.9 -99.99 -9.99
2019/05/19 02:36 EDT  -99.99 -99.99    5   98    6 -99.9 -99.9 -999.9 -9.9 -9.999 -99.9 -99.99 -9.99
2019/05/19 02:42 EDT  -99.99 -99.99    3   93    5 -99.9 -99.9 -999.9 -9.9 -9.999 -99.9 -99.99 -9.99
2019/05/19 02:48 EDT  -99.99 -99.99    2   75    4 -99.9 -99.9 -999.9 -9.9 -9.999 -99.9 -99.99 -9.99
2019/05/19 02:54 EDT  -99.99 -99.99    2  104    3 -99.9 -99.9 -999.9 -9.9 -9.999 -99.9 -99.99 -9.99
2019/05/19 03:00 EDT  -99.99 -99.99    3  100    6 -99.9 -99.9 -999.9 -9.9 -9.999 -99.9 -99.99 -9.99
2019/05/19 03:06 EDT  -99.99 -99.99    4  104    6 -99.9 -99.9 -999.9 -9.9 -9.999 -99.9 -99.99 -9.99
2019/05/19 03:12 EDT  -99.99 -99.99    5  137    7 -99.9 -99.9 -999.9 -9.9 -9.999 -99.9 -99.99 -9.99
2019/05/19 03:18 EDT  -99.99 -99.99    5  127    7 -99.9 -99.9 -999.9 -9.9 -9.999 -99.9 -99.99 -9.99
2019/05/19 03:24 EDT  -99.99 -99.99    4  107    7 -99.9 -99.9 -999.9 -9.9 -9.999 -99.9 -99.99 -9.99
2019/05/19 03:30 EDT  -99.99 -99.99    5  119    7 -99.9 -99.9 -999.9 -9.9 -9.999 -99.9 -99.99 -9.99
2019/05/19 03:36 EDT  -99.99 -99.99    4  126    6 -99.9 -99.9 -999.9 -9.9 -9.999 -99.9 -99.99 -9.99
2019/05/19 03:42 EDT  -99.99 -99.99    4  105    5 -99.9 -99.9 -999.9 -9.9 -9.999 -99.9 -99.99 -9.99
2019/05/19 03:48 EDT  -99.99 -99.99    5  114    6 -99.9 -99.9 -999.9 -9.9 -9.999 -99.9 -99.99 -9.99
2019/05/19 03:54 EDT  -99.99 -99.99    4  105    5 -99.9 -99.9 -999.9 -9.9 -9.999 -99.9 -99.99 -9.99
2019/05/19 04:00 EDT  -99.99 -99.99    4  113    5 -99.9 -99.9 -999.9 -9.9 -9.999 -99.9 -99.99 -9.99
2019/05/19 04:06 EDT  -99.99 -99.99    3  110    4 -99.9 -99.9 -999.9 -9.9 -9.999 -99.9 -99.99 -9.99
2019/05/19 04:12 EDT  -99.99 -99.99    4  109    6 -99.9 -99.9 -999.9 -9.9 -9.999 -99.9 -99.99 -9.99
2019/05/19 04:18 EDT  -99.99 -99.99    4   96    6 -99.9 -99.9 -999.9 -9.9 -9.999 -99.9 -99.99 -9.99
2019/05/19 04:24 EDT  -99.99 -99.99    4  112    6 -99.9 -99.9 -999.9 -9.9 -9.999 -99.9 -99.99 -9.99
2019/05/19 04:30 EDT  -99.99 -99.99    3  128    4 -99.9 -99.9 -999.9 -9.9 -9.999 -99.9 -99.99 -9.99
2019/05/19 04:36 EDT  -99.99 -99.99    3  147    5 -99.9 -99.9 -999.9 -9.9 -9.999 -99.9 -99.99 -9.99
2019/05/19 04:42 EDT  -99.99 -99.99    4  111    4 -99.9 -99.9 -999.9 -9.9 -9.999 -99.9 -99.99 -9.99
2019/05/19 04:48 EDT  -99.99 -99.99    4  135    5 -99.9 -99.9 -999.9 -9.9 -9.999 -99.9 -99.99 -9.99
2019/05/19 04:54 EDT  -99.99 -99.99    4  124    5 -99.9 -99.9 -999.9 -9.9 -9.999 -99.9 -99.99 -9.99
2019/05/19 05:00 EDT  -99.99 -99.99    4  108    5 -99.9 -99.9 -999.9 -9.9 -9.999 -99.9 -99.99 -9.99
2019/05/19 05:06 EDT  -99.99 -99.99    4  112    6 -99.9 -99.9 -999.9 -9.9 -9.999 -99.9 -99.99 -9.99
2019/05/19 05:12 EDT  -99.99 -99.99    3   98    4 -99.9 -99.9 -999.9 -9.9 -9.999 -99.9 -99.99 -9.99
2019/05/19 05:18 EDT  -99.99 -99.99    3   23    5 -99.9 -99.9 -999.9 -9.9 -9.999 -99.9 -99.99 -9.99
2019/05/19 05:24 EDT  -99.99 -99.99    2   13    3 -99.9 -99.9 -999.9 -9.9 -9.999 -99.9 -99.99 -9.99
2019/05/19 05:30 EDT  -99.99 -99.99    3   46    4 -99.9 -99.9 -999.9 -9.9 -9.999 -99.9 -99.99 -9.99
2019/05/19 05:36 EDT  -99.99 -99.99 -999 -999 -999 -99.9 -99.9 -999.9 -9.9 -9.999 -99.9 -99.99 -9.99

Revised: 08/08/2018
NOAA / National Ocean Service
Web site owner: Center for Operational Oceanographic Products and Services